Observation data for Canadian on 06/25/2019      Previous  Date  Next       Current Mesonet Observations  Soil Data  Daily Summary Page  Observations in Plain Language
KCA1 250500Z 13011KT 20/14 A2993 RMK A01 T02040135  RH  065%=      5-min Rain = 0
KCA1 250501Z 13011KT 20/13 A2992 RMK A01 T02030134  RH  065%=      5-min Rain = 0
KCA1 250502Z 13011KT 21/13 A2992 RMK A01 T02050134  RH  064%=      5-min Rain = 0
KCA1 250503Z 13012KT 21/13 A2992 RMK A01 T02060134  RH  063%=      5-min Rain = 0
KCA1 250504Z 13010KT 21/13 A2992 RMK A01 T02070134  RH  063%=      5-min Rain = 0
KCA1 250505Z 13011KT 21/14 A2992 RMK A01 T02070135  RH  063%=      5-min Rain = 0
KCA1 250506Z 13011KT 21/14 A2992 RMK A01 T02070135  RH  063%=      5-min Rain = 0
KCA1 250507Z 13011KT 21/13 A2992 RMK A01 T02070134  RH  063%=      5-min Rain = 0
KCA1 250508Z 13012KT 21/13 A2992 RMK A01 T02080134  RH  063%=      5-min Rain = 0
KCA1 250509Z 13010KT 21/13 A2992 RMK A01 T02080134  RH  063%=      5-min Rain = 0
KCA1 250510Z 13010KT 21/14 A2992 RMK A01 T02080135  RH  063%=      5-min Rain = 0
KCA1 250511Z 13011KT 21/14 A2992 RMK A01 T02080135  RH  063%=      5-min Rain = 0
KCA1 250512Z 13011KT 21/14 A2992 RMK A01 T02080135  RH  063%=      5-min Rain = 0
KCA1 250513Z 13011KT 21/14 A2992 RMK A01 T02090135  RH  063%=      5-min Rain = 0
KCA1 250514Z 13011KT 21/14 A2992 RMK A01 T02090135  RH  063%=      5-min Rain = 0
KCA1 250515Z 13011KT 21/14 A2992 RMK A01 T02090135  RH  062%=      5-min Rain = 0
KCA1 250516Z 13010KT 21/14 A2992 RMK A01 T02090135  RH  063%=      5-min Rain = 0
KCA1 250517Z 13009KT 21/14 A2992 RMK A01 T02090135  RH  063%=      5-min Rain = 0
KCA1 250518Z 13010KT 21/14 A2992 RMK A01 T02090136  RH  063%=      5-min Rain = 0
KCA1 250519Z 13010KT 21/14 A2992 RMK A01 T02090135  RH  063%=      5-min Rain = 0
KCA1 250520Z 13009KT 21/14 A2992 RMK A01 T02090135  RH  063%=      5-min Rain = 0
KCA1 250521Z 13009KT 21/14 A2992 RMK A01 T02090135  RH  063%=      5-min Rain = 0
KCA1 250522Z 13009KT 21/14 A2992 RMK A01 T02080136  RH  063%=      5-min Rain = 0
KCA1 250523Z 13010KT 21/14 A2992 RMK A01 T02080136  RH  063%=      5-min Rain = 0
KCA1 250524Z 13009KT 21/14 A2992 RMK A01 T02080136  RH  063%=      5-min Rain = 0
KCA1 250525Z 13009KT 21/14 A2992 RMK A01 T02080136  RH  064%=      5-min Rain = 0
KCA1 250526Z 13010KT 21/14 A2992 RMK A01 T02070136  RH  064%=      5-min Rain = 0
KCA1 250527Z 13010KT 21/14 A2992 RMK A01 T02070135  RH  063%=      5-min Rain = 0
KCA1 250528Z 13010KT 21/14 A2992 RMK A01 T02080136  RH  063%=      5-min Rain = 0
KCA1 250529Z 12010KT 21/14 A2992 RMK A01 T02080136  RH  063%=      5-min Rain = 0
KCA1 250530Z 13011KT 21/14 A2992 RMK A01 T02080136  RH  063%=      5-min Rain = 0
KCA1 250531Z 13011KT 21/14 A2992 RMK A01 T02080136  RH  063%=      5-min Rain = 0
KCA1 250532Z 13011KT 21/14 A2992 RMK A01 T02090136  RH  063%=      5-min Rain = 0
KCA1 250533Z 13011KT 21/14 A2992 RMK A01 T02090135  RH  063%=      5-min Rain = 0
KCA1 250534Z 13011KT 21/14 A2992 RMK A01 T02100136  RH  062%=      5-min Rain = 0
KCA1 250535Z 13009KT 21/14 A2992 RMK A01 T02100136  RH  062%=      5-min Rain = 0
KCA1 250536Z 13010KT 21/14 A2992 RMK A01 T02100137  RH  063%=      5-min Rain = 0
KCA1 250537Z 13010KT 21/14 A2992 RMK A01 T02100137  RH  063%=      5-min Rain = 0
KCA1 250538Z 13010KT 21/14 A2992 RMK A01 T02090137  RH  063%=      5-min Rain = 0
KCA1 250539Z 12010KT 21/14 A2992 RMK A01 T02090136  RH  063%=      5-min Rain = 0
KCA1 250540Z 13010KT 21/14 A2992 RMK A01 T02090136  RH  063%=      5-min Rain = 0
KCA1 250541Z 12010KT 21/14 A2992 RMK A01 T02090137  RH  063%=      5-min Rain = 0
KCA1 250542Z 12010KT 21/14 A2992 RMK A01 T02090137  RH  063%=      5-min Rain = 0
KCA1 250543Z 13010KT 21/14 A2992 RMK A01 T02090137  RH  064%=      5-min Rain = 0
KCA1 250544Z 12009KT 21/14 A2992 RMK A01 T02090137  RH  063%=      5-min Rain = 0
KCA1 250545Z 12010KT 21/14 A2992 RMK A01 T02090137  RH  064%=      5-min Rain = 0
KCA1 250546Z 12010KT 21/14 A2992 RMK A01 T02090137  RH  063%=      5-min Rain = 0
KCA1 250547Z 13010KT 21/14 A2992 RMK A01 T02090137  RH  063%=      5-min Rain = 0
KCA1 250548Z 12009KT 21/14 A2992 RMK A01 T02090137  RH  063%=      5-min Rain = 0
KCA1 250549Z 13009KT 21/14 A2992 RMK A01 T02090137  RH  064%=      5-min Rain = 0
KCA1 250550Z 13011KT 21/14 A2992 RMK A01 T02080137  RH  064%=      5-min Rain = 0
KCA1 250551Z 13009KT 21/14 A2992 RMK A01 T02080137  RH  064%=      5-min Rain = 0
KCA1 250552Z 13008KT 21/14 A2992 RMK A01 T02080137  RH  064%=      5-min Rain = 0
KCA1 250553Z 13010KT 21/14 A2992 RMK A01 T02080138  RH  064%=      5-min Rain = 0
KCA1 250554Z 13010KT 21/14 A2992 RMK A01 T02080138  RH  064%=      5-min Rain = 0
KCA1 250555Z 13010KT 21/14 A2992 RMK A01 T02080138  RH  064%=      5-min Rain = 0
KCA1 250556Z 13010KT 21/14 A2992 RMK A01 T02080138  RH  064%=      5-min Rain = 0
KCA1 250557Z 13010KT 21/14 A2992 RMK A01 T02080138  RH  064%=      5-min Rain = 0
KCA1 250558Z 13011KT 21/14 A2992 RMK A01 T02080139  RH  065%=      5-min Rain = 0
KCA1 250559Z 13010KT 21/14 A2992 RMK A01 T02080138  RH  064%=      5-min Rain = 0
KCA1 250600Z 13009KT 21/14 A2992 RMK A01 T02090139  RH  064%=      5-min Rain = 0
KCA1 250601Z 14010KT 21/14 A2992 RMK A01 T02080140  RH  065%=      5-min Rain = 0
KCA1 250602Z 13009KT 21/14 A2992 RMK A01 T02080140  RH  065%=      5-min Rain = 0
KCA1 250603Z 13010KT 21/14 A2992 RMK A01 T02080140  RH  065%=      5-min Rain = 0
KCA1 250604Z 13010KT 21/14 A2992 RMK A01 T02080140  RH  065%=      5-min Rain = 0
KCA1 250605Z 14009KT 21/14 A2992 RMK A01 T02090140  RH  065%=      5-min Rain = 0
KCA1 250606Z 14011KT 21/14 A2992 RMK A01 T02090140  RH  065%=      5-min Rain = 0
KCA1 250607Z 14009KT 21/14 A2992 RMK A01 T02090140  RH  065%=      5-min Rain = 0
KCA1 250608Z 14010KT 21/14 A2992 RMK A01 T02090141  RH  065%=      5-min Rain = 0
KCA1 250609Z 14009KT 21/14 A2992 RMK A01 T02090141  RH  065%=      5-min Rain = 0
KCA1 250610Z 14010KT 21/14 A2992 RMK A01 T02090142  RH  066%=      5-min Rain = 0
KCA1 250611Z 13012KT 21/14 A2992 RMK A01 T02080142  RH  066%=      5-min Rain = 0
KCA1 250612Z 14010KT 21/14 A2992 RMK A01 T02080142  RH  066%=      5-min Rain = 0
KCA1 250613Z 14011KT 21/14 A2992 RMK A01 T02090142  RH  066%=      5-min Rain = 0
KCA1 250614Z 13010KT 21/14 A2992 RMK A01 T02090143  RH  066%=      5-min Rain = 0
KCA1 250615Z 14011KT 21/14 A2992 RMK A01 T02090143  RH  066%=      5-min Rain = 0
KCA1 250616Z 14010KT 21/14 A2992 RMK A01 T02090142  RH  066%=      5-min Rain = 0
KCA1 250617Z 14008KT 21/14 A2992 RMK A01 T02090143  RH  066%=      5-min Rain = 0
KCA1 250618Z 14009KT 21/14 A2992 RMK A01 T02080143  RH  066%=      5-min Rain = 0
KCA1 250619Z 14010KT 21/14 A2992 RMK A01 T02070143  RH  067%=      5-min Rain = 0
KCA1 250620Z 14009KT 21/14 A2992 RMK A01 T02070143  RH  067%=      5-min Rain = 0
KCA1 250621Z 14009KT 21/14 A2992 RMK A01 T02070144  RH  067%=      5-min Rain = 0
KCA1 250622Z 14009KT 21/14 A2992 RMK A01 T02060144  RH  068%=      5-min Rain = 0
KCA1 250623Z 14009KT 21/14 A2992 RMK A01 T02060144  RH  068%=      5-min Rain = 0
KCA1 250624Z 14010KT 21/14 A2992 RMK A01 T02050144  RH  068%=      5-min Rain = 0
KCA1 250625Z 14009KT 21/14 A2992 RMK A01 T02050144  RH  068%=      5-min Rain = 0
KCA1 250626Z 14009KT 21/14 A2992 RMK A01 T02050144  RH  068%=      5-min Rain = 0
KCA1 250627Z 14009KT 21/15 A2992 RMK A01 T02050145  RH  069%=      5-min Rain = 0
KCA1 250628Z 14008KT 20/15 A2992 RMK A01 T02040145  RH  069%=      5-min Rain = 0
KCA1 250629Z 14009KT 20/15 A2992 RMK A01 T02040145  RH  069%=      5-min Rain = 0
KCA1 250630Z 14008KT 20/15 A2992 RMK A01 T02040145  RH  069%=      5-min Rain = 0
KCA1 250631Z 13009KT 20/15 A2992 RMK A01 T02030145  RH  069%=      5-min Rain = 0
KCA1 250632Z 14009KT 20/15 A2992 RMK A01 T02030146  RH  069%=      5-min Rain = 0
KCA1 250633Z 14009KT 20/15 A2992 RMK A01 T02030145  RH  070%=      5-min Rain = 0
KCA1 250634Z 13009KT 20/15 A2992 RMK A01 T02030146  RH  070%=      5-min Rain = 0
KCA1 250635Z 13009KT 20/15 A2992 RMK A01 T02030146  RH  070%=      5-min Rain = 0
KCA1 250636Z 14008KT 20/15 A2992 RMK A01 T02030146  RH  070%=      5-min Rain = 0
KCA1 250637Z 13008KT 20/15 A2992 RMK A01 T02030146  RH  070%=      5-min Rain = 0
KCA1 250638Z 13009KT 20/15 A2992 RMK A01 T02020147  RH  070%=      5-min Rain = 0
KCA1 250639Z 13008KT 20/15 A2992 RMK A01 T02020147  RH  070%=      5-min Rain = 0
KCA1 250640Z 13009KT 20/15 A2992 RMK A01 T02010147  RH  071%=      5-min Rain = 0
KCA1 250641Z 13008KT 20/15 A2992 RMK A01 T02010147  RH  071%=      5-min Rain = 0
KCA1 250642Z 13008KT 20/15 A2992 RMK A01 T02000147  RH  071%=      5-min Rain = 0
KCA1 250643Z 13008KT 20/15 A2992 RMK A01 T02000147  RH  072%=      5-min Rain = 0
KCA1 250644Z 13008KT 20/15 A2992 RMK A01 T01990148  RH  072%=      5-min Rain = 0
KCA1 250645Z 13008KT 20/15 A2992 RMK A01 T01990148  RH  072%=      5-min Rain = 0
KCA1 250646Z 13009KT 20/15 A2992 RMK A01 T01980148  RH  073%=      5-min Rain = 0
KCA1 250647Z 13008KT 20/15 A2992 RMK A01 T01980148  RH  073%=      5-min Rain = 0
KCA1 250648Z 13008KT 20/15 A2992 RMK A01 T01980148  RH  073%=      5-min Rain = 0
KCA1 250649Z 13008KT 20/15 A2992 RMK A01 T01980148  RH  073%=      5-min Rain = 0
KCA1 250650Z 13008KT 20/15 A2992 RMK A01 T01980148  RH  073%=      5-min Rain = 0
KCA1 250651Z 13008KT 20/15 A2992 RMK A01 T01970149  RH  074%=      5-min Rain = 0
KCA1 250652Z 13008KT 20/15 A2992 RMK A01 T01970149  RH  074%=      5-min Rain = 0
KCA1 250653Z 13008KT 20/15 A2992 RMK A01 T01970148  RH  074%=      5-min Rain = 0
KCA1 250654Z 13008KT 20/15 A2992 RMK A01 T01970149  RH  074%=      5-min Rain = 0
KCA1 250655Z 13007KT 20/15 A2992 RMK A01 T01970149  RH  074%=      5-min Rain = 0
KCA1 250656Z 13007KT 20/15 A2992 RMK A01 T01960149  RH  074%=      5-min Rain = 0
KCA1 250657Z 13008KT 20/15 A2992 RMK A01 T01950149  RH  075%=      5-min Rain = 0
KCA1 250658Z 13008KT 20/15 A2992 RMK A01 T01950149  RH  075%=      5-min Rain = 0
KCA1 250659Z 13008KT 20/15 A2991 RMK A01 T01950149  RH  075%=      5-min Rain = 0
KCA1 250700Z 13008KT 20/15 A2991 RMK A01 T01950150  RH  075%=      5-min Rain = 0
KCA1 250701Z 13008KT 20/15 A2991 RMK A01 T01950150  RH  075%=      5-min Rain = 0
KCA1 250702Z 13008KT 20/15 A2991 RMK A01 T01950150  RH  075%=      5-min Rain = 0
KCA1 250703Z 13009KT 19/15 A2991 RMK A01 T01940150  RH  075%=      5-min Rain = 0
KCA1 250704Z 13008KT 19/15 A2991 RMK A01 T01940149  RH  076%=      5-min Rain = 0
KCA1 250705Z 13007KT 19/15 A2991 RMK A01 T01940150  RH  076%=      5-min Rain = 0
KCA1 250706Z 13007KT 19/15 A2991 RMK A01 T01940150  RH  076%=      5-min Rain = 0
KCA1 250707Z 13007KT 19/15 A2991 RMK A01 T01940150  RH  076%=      5-min Rain = 0
KCA1 250708Z 12008KT 19/15 A2991 RMK A01 T01930151  RH  076%=      5-min Rain = 0
KCA1 250709Z 12008KT 19/15 A2991 RMK A01 T01920151  RH  077%=      5-min Rain = 0
KCA1 250710Z 12009KT 19/15 A2991 RMK A01 T01920151  RH  077%=      5-min Rain = 0
KCA1 250711Z 13008KT 19/15 A2991 RMK A01 T01920151  RH  077%=      5-min Rain = 0
KCA1 250712Z 12008KT 19/15 A2991 RMK A01 T01920151  RH  077%=      5-min Rain = 0
KCA1 250713Z 12008KT 19/15 A2991 RMK A01 T01920152  RH  078%=      5-min Rain = 0
KCA1 250714Z 12008KT 19/15 A2991 RMK A01 T01920152  RH  078%=      5-min Rain = 0
KCA1 250715Z 12007KT 19/15 A2991 RMK A01 T01920152  RH  078%=      5-min Rain = 0
KCA1 250716Z 12008KT 19/15 A2991 RMK A01 T01920152  RH  078%=      5-min Rain = 0
KCA1 250717Z 12007KT 19/15 A2991 RMK A01 T01910152  RH  078%=      5-min Rain = 0
KCA1 250718Z 12007KT 19/15 A2991 RMK A01 T01910152  RH  078%=      5-min Rain = 0
KCA1 250719Z 12007KT 19/15 A2991 RMK A01 T01900152  RH  078%=      5-min Rain = 0
KCA1 250720Z 12007KT 19/15 A2991 RMK A01 T01900152  RH  079%=      5-min Rain = 0
KCA1 250721Z 12007KT 19/15 A2991 RMK A01 T01890152  RH  079%=      5-min Rain = 0
KCA1 250722Z 12007KT 19/15 A2991 RMK A01 T01880152  RH  079%=      5-min Rain = 0
KCA1 250723Z 12007KT 19/15 A2991 RMK A01 T01880152  RH  080%=      5-min Rain = 0
KCA1 250724Z 12006KT 19/15 A2991 RMK A01 T01880152  RH  080%=      5-min Rain = 0
KCA1 250725Z 12007KT 19/15 A2991 RMK A01 T01880153  RH  080%=      5-min Rain = 0
KCA1 250726Z 12007KT 19/15 A2991 RMK A01 T01870152  RH  080%=      5-min Rain = 0
KCA1 250727Z 11007KT 19/15 A2991 RMK A01 T01870152  RH  080%=      5-min Rain = 0
KCA1 250728Z 11008KT 19/15 A2991 RMK A01 T01870153  RH  080%=      5-min Rain = 0
KCA1 250729Z 11007KT 19/15 A2991 RMK A01 T01870152  RH  080%=      5-min Rain = 0
KCA1 250730Z 11008KT 19/15 A2991 RMK A01 T01860152  RH  081%=      5-min Rain = 0
KCA1 250731Z 11007KT 19/15 A2991 RMK A01 T01860152  RH  081%=      5-min Rain = 0
KCA1 250732Z 12008KT 19/15 A2991 RMK A01 T01860153  RH  081%=      5-min Rain = 0
KCA1 250733Z 11007KT 19/15 A2992 RMK A01 T01860153  RH  081%=      5-min Rain = 0
KCA1 250734Z 11007KT 19/15 A2991 RMK A01 T01860153  RH  081%=      5-min Rain = 0
KCA1 250735Z 11007KT 19/15 A2991 RMK A01 T01860153  RH  081%=      5-min Rain = 0
KCA1 250736Z 11006KT 19/15 A2992 RMK A01 T01860153  RH  081%=      5-min Rain = 0
KCA1 250737Z 11007KT 19/15 A2992 RMK A01 T01850153  RH  081%=      5-min Rain = 0
KCA1 250738Z 12007KT 19/15 A2992 RMK A01 T01850153  RH  082%=      5-min Rain = 0
KCA1 250739Z 12007KT 19/15 A2992 RMK A01 T01850153  RH  082%=      5-min Rain = 0
KCA1 250740Z 11006KT 19/15 A2992 RMK A01 T01850153  RH  082%=      5-min Rain = 0
KCA1 250741Z 12007KT 18/15 A2992 RMK A01 T01840153  RH  082%=      5-min Rain = 0
KCA1 250742Z 11007KT 18/15 A2992 RMK A01 T01840153  RH  082%=      5-min Rain = 0
KCA1 250743Z 12008KT 18/15 A2992 RMK A01 T01840153  RH  082%=      5-min Rain = 0
KCA1 250744Z 12007KT 18/15 A2992 RMK A01 T01840154  RH  082%=      5-min Rain = 0
KCA1 250745Z 11007KT 19/15 A2992 RMK A01 T01850154  RH  082%=      5-min Rain = 0
KCA1 250746Z 12007KT 19/15 A2992 RMK A01 T01850154  RH  082%=      5-min Rain = 0
KCA1 250747Z 12007KT 19/16 A2992 RMK A01 T01850155  RH  082%=      5-min Rain = 0
KCA1 250748Z 11008KT 19/16 A2992 RMK A01 T01850155  RH  083%=      5-min Rain = 0
KCA1 250749Z 11007KT 18/15 A2992 RMK A01 T01840154  RH  083%=      5-min Rain = 0
KCA1 250750Z 12007KT 18/16 A2992 RMK A01 T01840155  RH  083%=      5-min Rain = 0
KCA1 250751Z 12006KT 18/15 A2992 RMK A01 T01840154  RH  083%=      5-min Rain = 0
KCA1 250752Z 11006KT 18/16 A2992 RMK A01 T01840155  RH  083%=      5-min Rain = 0
KCA1 250753Z 11006KT 18/16 A2992 RMK A01 T01830155  RH  083%=      5-min Rain = 0
KCA1 250754Z 12006KT 18/16 A2992 RMK A01 T01830155  RH  084%=      5-min Rain = 0
KCA1 250755Z 13007KT 18/16 A2992 RMK A01 T01830155  RH  084%=      5-min Rain = 0
KCA1 250756Z 12008KT 18/16 A2992 RMK A01 T01820155  RH  084%=      5-min Rain = 0
KCA1 250757Z 13007KT 18/16 A2992 RMK A01 T01820155  RH  084%=      5-min Rain = 0
KCA1 250758Z 12007KT 18/16 A2992 RMK A01 T01820155  RH  084%=      5-min Rain = 0
KCA1 250759Z 13007KT 18/16 A2992 RMK A01 T01820156  RH  085%=      5-min Rain = 0
KCA1 250800Z 13008KT 18/16 A2992 RMK A01 T01820156  RH  085%=      5-min Rain = 0
KCA1 250801Z 13009KT 18/16 A2992 RMK A01 T01830157  RH  085%=      5-min Rain = 0
KCA1 250802Z 13009KT 18/16 A2992 RMK A01 T01840157  RH  084%=      5-min Rain = 0
KCA1 250803Z 12009KT 19/16 A2992 RMK A01 T01850157  RH  084%=      5-min Rain = 0
KCA1 250804Z 13010KT 19/16 A2992 RMK A01 T01860158  RH  084%=      5-min Rain = 0
KCA1 250805Z 13010KT 19/16 A2992 RMK A01 T01870159  RH  083%=      5-min Rain = 0
KCA1 250806Z 13008KT 19/16 A2992 RMK A01 T01880159  RH  083%=      5-min Rain = 0
KCA1 250807Z 14009KT 19/16 A2992 RMK A01 T01880158  RH  083%=      5-min Rain = 0
KCA1 250808Z 13009KT 19/16 A2992 RMK A01 T01880159  RH  083%=      5-min Rain = 0
KCA1 250809Z 13010KT 19/16 A2992 RMK A01 T01880159  RH  083%=      5-min Rain = 0
KCA1 250810Z 13010KT 19/16 A2992 RMK A01 T01880159  RH  083%=      5-min Rain = 0
KCA1 250811Z 13009KT 19/16 A2992 RMK A01 T01890159  RH  083%=      5-min Rain = 0
KCA1 250812Z 13009KT 19/16 A2992 RMK A01 T01890160  RH  083%=      5-min Rain = 0
KCA1 250813Z 14011KT 19/16 A2993 RMK A01 T01900160  RH  083%=      5-min Rain = 0
KCA1 250814Z 13009KT 19/16 A2992 RMK A01 T01900160  RH  083%=      5-min Rain = 0
KCA1 250815Z 13009KT 19/16 A2993 RMK A01 T01900160  RH  083%=      5-min Rain = 0
KCA1 250816Z 13009KT 19/16 A2993 RMK A01 T01900160  RH  083%=      5-min Rain = 0
KCA1 250817Z 13009KT 19/16 A2993 RMK A01 T01900161  RH  083%=      5-min Rain = 0
KCA1 250818Z 14009KT 19/16 A2993 RMK A01 T01890161  RH  083%=      5-min Rain = 0
KCA1 250819Z 13008KT 19/16 A2993 RMK A01 T01890161  RH  084%=      5-min Rain = 0
KCA1 250820Z 13009KT 19/16 A2993 RMK A01 T01890161  RH  084%=      5-min Rain = 0
KCA1 250821Z 14009KT 19/16 A2993 RMK A01 T01890161  RH  084%=      5-min Rain = 0
KCA1 250822Z 13009KT 19/16 A2992 RMK A01 T01890161  RH  084%=      5-min Rain = 0
KCA1 250823Z 13008KT 19/16 A2992 RMK A01 T01890161  RH  084%=      5-min Rain = 0
KCA1 250824Z 13010KT 19/16 A2992 RMK A01 T01890161  RH  084%=      5-min Rain = 0
KCA1 250825Z 14009KT 19/16 A2992 RMK A01 T01900162  RH  084%=      5-min Rain = 0
KCA1 250826Z 14009KT 19/16 A2992 RMK A01 T01900162  RH  084%=      5-min Rain = 0
KCA1 250827Z 14009KT 19/16 A2992 RMK A01 T01900162  RH  084%=      5-min Rain = 0
KCA1 250828Z 14009KT 19/16 A2992 RMK A01 T01900162  RH  084%=      5-min Rain = 0
KCA1 250829Z 14008KT 19/16 A2992 RMK A01 T01900162  RH  084%=      5-min Rain = 0
KCA1 250830Z 14008KT 19/16 A2992 RMK A01 T01900163  RH  084%=      5-min Rain = 0
KCA1 250831Z 13009KT 19/16 A2992 RMK A01 T01900163  RH  084%=      5-min Rain = 0
KCA1 250832Z 13008KT 19/16 A2992 RMK A01 T01900163  RH  084%=      5-min Rain = 0
KCA1 250833Z 14008KT 19/16 A2992 RMK A01 T01900163  RH  084%=      5-min Rain = 0
KCA1 250834Z 13008KT 19/16 A2993 RMK A01 T01890163  RH  085%=      5-min Rain = 0
KCA1 250835Z 13008KT 19/16 A2993 RMK A01 T01890163  RH  085%=      5-min Rain = 0
KCA1 250836Z 13009KT 19/16 A2993 RMK A01 T01900163  RH  085%=      5-min Rain = 0
KCA1 250837Z 14009KT 19/16 A2993 RMK A01 T01900163  RH  085%=      5-min Rain = 0
KCA1 250838Z 13007KT 19/16 A2993 RMK A01 T01900164  RH  085%=      5-min Rain = 0
KCA1 250839Z 14008KT 19/16 A2993 RMK A01 T01890164  RH  085%=      5-min Rain = 0
KCA1 250840Z 13007KT 19/16 A2993 RMK A01 T01890164  RH  085%=      5-min Rain = 0
KCA1 250841Z 13006KT 19/16 A2993 RMK A01 T01890164  RH  085%=      5-min Rain = 0
KCA1 250842Z 14007KT 19/16 A2993 RMK A01 T01890164  RH  085%=      5-min Rain = 0
KCA1 250843Z 13007KT 19/16 A2993 RMK A01 T01890164  RH  086%=      5-min Rain = 0
KCA1 250844Z 14007KT 19/17 A2992 RMK A01 T01890165  RH  086%=      5-min Rain = 0
KCA1 250845Z 14007KT 19/17 A2993 RMK A01 T01890165  RH  086%=      5-min Rain = 0
KCA1 250846Z 14007KT 19/17 A2993 RMK A01 T01890165  RH  086%=      5-min Rain = 0
KCA1 250847Z 14008KT 19/17 A2993 RMK A01 T01890166  RH  086%=      5-min Rain = 0
KCA1 250848Z 14007KT 19/17 A2993 RMK A01 T01890165  RH  086%=      5-min Rain = 0
KCA1 250849Z 14008KT 19/17 A2993 RMK A01 T01890165  RH  086%=      5-min Rain = 0
KCA1 250850Z 15007KT 19/17 A2993 RMK A01 T01890166  RH  086%=      5-min Rain = 0
KCA1 250851Z 15007KT 19/17 A2993 RMK A01 T01890166  RH  086%=      5-min Rain = 0
KCA1 250852Z 15008KT 19/17 A2993 RMK A01 T01890166  RH  087%=      5-min Rain = 0
KCA1 250853Z 15008KT 19/17 A2993 RMK A01 T01890167  RH  087%=      5-min Rain = 0
KCA1 250854Z 15007KT 19/17 A2993 RMK A01 T01900168  RH  087%=      5-min Rain = 0
KCA1 250855Z 15007KT 19/17 A2993 RMK A01 T01910168  RH  087%=      5-min Rain = 0
KCA1 250856Z 15007KT 19/17 A2993 RMK A01 T01910168  RH  087%=      5-min Rain = 0
KCA1 250857Z 15007KT 19/17 A2993 RMK A01 T01910168  RH  087%=      5-min Rain = 0
KCA1 250858Z 15007KT 19/17 A2993 RMK A01 T01900168  RH  087%=      5-min Rain = 0
KCA1 250859Z 16007KT 19/17 A2993 RMK A01 T01900169  RH  087%=      5-min Rain = 0
KCA1 250900Z 15007KT 19/17 A2993 RMK A01 T01900169  RH  087%=      5-min Rain = 0
KCA1 250901Z 15006KT 19/17 A2993 RMK A01 T01900169  RH  087%=      5-min Rain = 0
KCA1 250902Z 15007KT 19/17 A2993 RMK A01 T01900169  RH  087%=      5-min Rain = 0
KCA1 250903Z 15007KT 19/17 A2993 RMK A01 T01900169  RH  088%=      5-min Rain = 0
KCA1 250904Z 15007KT 19/17 A2993 RMK A01 T01900170  RH  088%=      5-min Rain = 0
KCA1 250905Z 15009KT 19/17 A2992 RMK A01 T01900170  RH  088%=      5-min Rain = 0
KCA1 250906Z 15008KT 19/17 A2992 RMK A01 T01900171  RH  088%=      5-min Rain = 0
KCA1 250907Z 15006KT 19/17 A2993 RMK A01 T01910171  RH  088%=      5-min Rain = 0
KCA1 250908Z 15007KT 19/17 A2993 RMK A01 T01910171  RH  088%=      5-min Rain = 0
KCA1 250909Z 15008KT 19/17 A2992 RMK A01 T01910171  RH  088%=      5-min Rain = 0
KCA1 250910Z 15008KT 19/17 A2993 RMK A01 T01910171  RH  088%=      5-min Rain = 0
KCA1 250911Z 15008KT 19/17 A2993 RMK A01 T01910172  RH  089%=      5-min Rain = 0
KCA1 250912Z 15007KT 19/17 A2993 RMK A01 T01910172  RH  089%=      5-min Rain = 0
KCA1 250913Z 15006KT 19/17 A2993 RMK A01 T01910172  RH  089%=      5-min Rain = 0
KCA1 250914Z 14007KT 19/17 A2993 RMK A01 T01910172  RH  089%=      5-min Rain = 0
KCA1 250915Z 14007KT 19/17 A2993 RMK A01 T01910172  RH  089%=      5-min Rain = 0
KCA1 250916Z 14007KT 19/17 A2993 RMK A01 T01910173  RH  089%=      5-min Rain = 0
KCA1 250917Z 14007KT 19/17 A2993 RMK A01 T01910173  RH  089%=      5-min Rain = 0
KCA1 250918Z 14007KT 19/17 A2993 RMK A01 T01910173  RH  089%=      5-min Rain = 0
KCA1 250919Z 14007KT 19/17 A2993 RMK A01 T01910173  RH  090%=      5-min Rain = 0
KCA1 250920Z 14006KT 19/17 A2992 RMK A01 T01910174  RH  090%=      5-min Rain = 0
KCA1 250921Z 14007KT 19/18 A2993 RMK A01 T01910175  RH  090%=      5-min Rain = 0
KCA1 250922Z 14007KT 19/18 A2993 RMK A01 T01910175  RH  090%=      5-min Rain = 0
KCA1 250923Z 15007KT 19/18 A2993 RMK A01 T01910175  RH  091%=      5-min Rain = 0
KCA1 250924Z 14007KT 19/18 A2993 RMK A01 T01910176  RH  091%=      5-min Rain = 0
KCA1 250925Z 14007KT 19/18 A2993 RMK A01 T01910176  RH  091%=      5-min Rain = 0
KCA1 250926Z 14007KT 19/18 A2992 RMK A01 T01910175  RH  091%=      5-min Rain = 0
KCA1 250927Z 15006KT 19/18 A2992 RMK A01 T01910175  RH  091%=      5-min Rain = 0
KCA1 250928Z 15006KT 19/18 A2993 RMK A01 T01910176  RH  091%=      5-min Rain = 0
KCA1 250929Z 15007KT 19/18 A2992 RMK A01 T01910176  RH  091%=      5-min Rain = 0
KCA1 250930Z 15007KT 19/18 A2992 RMK A01 T01910176  RH  091%=      5-min Rain = 0
KCA1 250931Z 15007KT 19/18 A2992 RMK A01 T01910177  RH  091%=      5-min Rain = 0
KCA1 250932Z 15007KT 19/18 A2992 RMK A01 T01910177  RH  092%=      5-min Rain = 0
KCA1 250933Z 14007KT 19/18 A2992 RMK A01 T01920178  RH  092%=      5-min Rain = 0
KCA1 250934Z 14006KT 19/18 A2992 RMK A01 T01920178  RH  092%=      5-min Rain = 0
KCA1 250935Z 15008KT 19/18 A2992 RMK A01 T01920178  RH  092%=      5-min Rain = 0
KCA1 250936Z 14006KT 19/18 A2992 RMK A01 T01920178  RH  092%=      5-min Rain = 0
KCA1 250937Z 14006KT 19/18 A2992 RMK A01 T01920178  RH  092%=      5-min Rain = 0
KCA1 250938Z 14006KT 19/18 A2992 RMK A01 T01920178  RH  092%=      5-min Rain = 0
KCA1 250939Z 14006KT 19/18 A2992 RMK A01 T01920178  RH  092%=      5-min Rain = 0
KCA1 250940Z 13005KT 19/18 A2992 RMK A01 T01920179  RH  092%=      5-min Rain = 0
KCA1 250941Z 14006KT 19/18 A2992 RMK A01 T01910179  RH  092%=      5-min Rain = 0
KCA1 250942Z 14006KT 19/18 A2992 RMK A01 T01910180  RH  093%=      5-min Rain = 0
KCA1 250943Z 13006KT 19/18 A2992 RMK A01 T01910180  RH  093%=      5-min Rain = 0
KCA1 250944Z 14006KT 19/18 A2993 RMK A01 T01910179  RH  093%=      5-min Rain = 0
KCA1 250945Z 14005KT 19/18 A2993 RMK A01 T01910180  RH  093%=      5-min Rain = 0
KCA1 250946Z 14005KT 19/18 A2993 RMK A01 T01920181  RH  093%=      5-min Rain = 0
KCA1 250947Z 14005KT 19/18 A2993 RMK A01 T01920180  RH  093%=      5-min Rain = 0
KCA1 250948Z 14006KT 19/18 A2992 RMK A01 T01920180  RH  093%=      5-min Rain = 0
KCA1 250949Z 13005KT 19/18 A2992 RMK A01 T01920181  RH  093%=      5-min Rain = 0
KCA1 250950Z 14005KT 19/18 A2992 RMK A01 T01910181  RH  093%=      5-min Rain = 0
KCA1 250951Z 14005KT 19/18 A2992 RMK A01 T01920181  RH  093%=      5-min Rain = 0
KCA1 250952Z 15005KT 19/18 A2992 RMK A01 T01910181  RH  094%=      5-min Rain = 0
KCA1 250953Z 14006KT 19/18 A2992 RMK A01 T01910181  RH  094%=      5-min Rain = 0
KCA1 250954Z 14006KT 19/18 A2992 RMK A01 T01910182  RH  094%=      5-min Rain = 0
KCA1 250955Z 14006KT 19/18 A2992 RMK A01 T01910183  RH  095%=      5-min Rain = 0
KCA1 250956Z 14006KT 19/18 A2992 RMK A01 T01910183  RH  095%=      5-min Rain = 0
KCA1 250957Z 14005KT 19/18 A2992 RMK A01 T01910182  RH  095%=      5-min Rain = 0
KCA1 250958Z 14006KT 19/18 A2992 RMK A01 T01910182  RH  095%=      5-min Rain = 0
KCA1 250959Z 14006KT 19/18 A2992 RMK A01 T01900182  RH  095%=      5-min Rain = 0
KCA1 251000Z 14005KT 19/18 A2992 RMK A01 T01900182  RH  095%=      5-min Rain = 0
KCA1 251001Z 14005KT 19/18 A2992 RMK A01 T01900182  RH  095%=      5-min Rain = 0
KCA1 251002Z 15005KT 19/18 A2992 RMK A01 T01890182  RH  096%=      5-min Rain = 0
KCA1 251003Z 15005KT 19/18 A2992 RMK A01 T01890183  RH  096%=      5-min Rain = 0
KCA1 251004Z 14005KT 19/18 A2992 RMK A01 T01890183  RH  096%=      5-min Rain = 0
KCA1 251005Z 14005KT 19/18 A2992 RMK A01 T01890184  RH  097%=      5-min Rain = 0
KCA1 251006Z 14005KT 19/18 A2992 RMK A01 T01900184  RH  097%=      5-min Rain = 0
KCA1 251007Z 15004KT 19/18 A2993 RMK A01 T01900184  RH  097%=      5-min Rain = 0
KCA1 251008Z 14005KT 19/19 A2993 RMK A01 T01900185  RH  097%=      5-min Rain = 0
KCA1 251009Z 14004KT 19/19 A2993 RMK A01 T01910186  RH  097%=      5-min Rain = 0
KCA1 251010Z 13005KT 19/19 A2993 RMK A01 T01910186  RH  097%=      5-min Rain = 0
KCA1 251011Z 13005KT 19/19 A2993 RMK A01 T01910185  RH  097%=      5-min Rain = 0
KCA1 251012Z 13004KT 19/19 A2993 RMK A01 T01910186  RH  097%=      5-min Rain = 0
KCA1 251013Z 13004KT 19/19 A2992 RMK A01 T01910186  RH  097%=      5-min Rain = 0
KCA1 251014Z 13006KT 19/19 A2992 RMK A01 T01910186  RH  097%=      5-min Rain = 0
KCA1 251015Z 14005KT 19/19 A2992 RMK A01 T01910187  RH  097%=      5-min Rain = 0
KCA1 251016Z 14004KT 19/19 A2993 RMK A01 T01920187  RH  097%=      5-min Rain = 0
KCA1 251017Z 15004KT 19/19 A2993 RMK A01 T01920187  RH  097%=      5-min Rain = 0
KCA1 251018Z 14005KT 19/19 A2993 RMK A01 T01920187  RH  097%=      5-min Rain = 0
KCA1 251019Z 15005KT 19/19 A2993 RMK A01 T01920188  RH  097%=      5-min Rain = 0
KCA1 251020Z 14004KT 19/19 A2993 RMK A01 T01920187  RH  097%=      5-min Rain = 0
KCA1 251021Z 15004KT 19/19 A2993 RMK A01 T01920188  RH  097%=      5-min Rain = 0
KCA1 251022Z 15005KT 19/19 A2993 RMK A01 T01920189  RH  098%=      5-min Rain = 0
KCA1 251023Z 15004KT 19/19 A2993 RMK A01 T01930189  RH  097%=      5-min Rain = 0
KCA1 251024Z 15004KT 19/19 A2993 RMK A01 T01930189  RH  097%=      5-min Rain = 0
KCA1 251025Z 16005KT 19/19 A2993 RMK A01 T01930189  RH  097%=      5-min Rain = 0
KCA1 251026Z 17003KT 19/19 A2993 RMK A01 T01930189  RH  097%=      5-min Rain = 0
KCA1 251027Z 15003KT 19/19 A2993 RMK A01 T01940189  RH  097%=      5-min Rain = 0
KCA1 251028Z 17003KT 19/19 A2993 RMK A01 T01940189  RH  097%=      5-min Rain = 0
KCA1 251029Z 17004KT 19/19 A2993 RMK A01 T01940190  RH  097%=      5-min Rain = 0
KCA1 251030Z 16005KT 20/19 A2993 RMK A01 T01950192  RH  098%=      5-min Rain = 0
KCA1 251031Z 16005KT 20/19 A2993 RMK A01 T01960192  RH  098%=      5-min Rain = 0
KCA1 251032Z 15006KT 20/19 A2993 RMK A01 T01970193  RH  097%=      5-min Rain = 0
KCA1 251033Z 16006KT 20/19 A2993 RMK A01 T01970193  RH  097%=      5-min Rain = 0
KCA1 251034Z 16006KT 20/19 A2993 RMK A01 T01970193  RH  097%=      5-min Rain = 0
KCA1 251035Z 17006KT 20/19 A2993 RMK A01 T01970193  RH  097%=      5-min Rain = 0
KCA1 251036Z 17008KT 20/19 A2993 RMK A01 T01980193  RH  097%=      5-min Rain = 0
KCA1 251037Z 17006KT 20/20 A2993 RMK A01 T01990195  RH  098%=      5-min Rain = 0
KCA1 251038Z 18006KT 20/19 A2993 RMK A01 T01990194  RH  097%=      5-min Rain = 0
KCA1 251039Z 18008KT 20/19 A2993 RMK A01 T01990194  RH  097%=      5-min Rain = 0
KCA1 251040Z 18009KT 20/20 A2993 RMK A01 T01990195  RH  097%=      5-min Rain = 0
KCA1 251041Z 18007KT 20/20 A2993 RMK A01 T02000196  RH  097%=      5-min Rain = 0
KCA1 251042Z 18008KT 20/20 A2993 RMK A01 T02010196  RH  097%=      5-min Rain = 0
KCA1 251043Z 17008KT 20/20 A2993 RMK A01 T02010196  RH  097%=      5-min Rain = 0
KCA1 251044Z 18010KT 20/20 A2993 RMK A01 T02020196  RH  097%=      5-min Rain = 0
KCA1 251045Z 17008KT 20/20 A2993 RMK A01 T02020197  RH  097%=      5-min Rain = 0
KCA1 251046Z 17008KT 20/20 A2993 RMK A01 T02020197  RH  097%=      5-min Rain = 0
KCA1 251047Z 17007KT 20/20 A2993 RMK A01 T02020197  RH  097%=      5-min Rain = 0
KCA1 251048Z 18008KT 20/20 A2993 RMK A01 T02030197  RH  097%=      5-min Rain = 0
KCA1 251049Z 18008KT 20/20 A2994 RMK A01 T02030197  RH  097%=      5-min Rain = 0
KCA1 251050Z 19009KT 20/20 A2994 RMK A01 T02030198  RH  097%=      5-min Rain = 0
KCA1 251051Z 18007KT 20/20 A2993 RMK A01 T02040199  RH  097%=      5-min Rain = 0
KCA1 251052Z 19006KT 20/20 A2994 RMK A01 T02040199  RH  097%=      5-min Rain = 0
KCA1 251053Z 18008KT 21/20 A2994 RMK A01 T02050199  RH  097%=      5-min Rain = 0
KCA1 251054Z 19008KT 21/20 A2994 RMK A01 T02050199  RH  097%=      5-min Rain = 0
KCA1 251055Z 19007KT 21/20 A2994 RMK A01 T02050200  RH  097%=      5-min Rain = 0
KCA1 251056Z 18005KT 21/20 A2994 RMK A01 T02050199  RH  097%=      5-min Rain = 0
KCA1 251057Z 19006KT 21/20 A2994 RMK A01 T02050199  RH  096%=      5-min Rain = 0
KCA1 251058Z 19006KT 21/20 A2994 RMK A01 T02050199  RH  097%=      5-min Rain = 0
KCA1 251059Z 18005KT 21/20 A2994 RMK A01 T02050199  RH  097%=      5-min Rain = 0
KCA1 251100Z 17005KT 20/20 A2994 RMK A01 T02040199  RH  096%=      5-min Rain = 0
KCA1 251101Z 18006KT 20/20 A2995 RMK A01 T02040198  RH  096%=      5-min Rain = 0
KCA1 251102Z 19007KT 20/20 A2995 RMK A01 T02030198  RH  097%=      5-min Rain = 0
KCA1 251103Z 20005KT 20/20 A2995 RMK A01 T02030198  RH  097%=      5-min Rain = 0
KCA1 251104Z 19005KT 20/20 A2995 RMK A01 T02030198  RH  097%=      5-min Rain = 0
KCA1 251105Z 20005KT 20/20 A2995 RMK A01 T02030198  RH  097%=      5-min Rain = 0
KCA1 251106Z 20006KT 20/20 A2995 RMK A01 T02020198  RH  097%=      5-min Rain = 0
KCA1 251107Z 21005KT 20/20 A2995 RMK A01 T02020198  RH  098%=      5-min Rain = 0
KCA1 251108Z 21005KT 20/20 A2995 RMK A01 T02020198  RH  097%=      5-min Rain = 0
KCA1 251109Z 21005KT 20/20 A2995 RMK A01 T02020198  RH  097%=      5-min Rain = 0
KCA1 251110Z 21004KT 20/20 A2995 RMK A01 T02020198  RH  098%=      5-min Rain = 0
KCA1 251111Z 22004KT 20/20 A2995 RMK A01 T02010198  RH  098%=      5-min Rain = 0
KCA1 251112Z 21005KT 20/20 A2995 RMK A01 T02010198  RH  098%=      5-min Rain = 0
KCA1 251113Z 21006KT 20/20 A2995 RMK A01 T02010198  RH  098%=      5-min Rain = 0
KCA1 251114Z 24004KT 20/20 A2995 RMK A01 T02010199  RH  099%=      5-min Rain = 0
KCA1 251115Z 22005KT 20/20 A2995 RMK A01 T02010199  RH  099%=      5-min Rain = 0
KCA1 251116Z 24004KT 20/20 A2995 RMK A01 T02020200  RH  099%=      5-min Rain = 0
KCA1 251117Z 24003KT 20/20 A2995 RMK A01 T02020200  RH  099%=      5-min Rain = 0
KCA1 251118Z 25003KT 20/20 A2995 RMK A01 T02020199  RH  099%=      5-min Rain = 0
KCA1 251119Z 28002KT 20/20 A2995 RMK A01 T02020200  RH  099%=      5-min Rain = 0
KCA1 251120Z 26002KT 20/20 A2995 RMK A01 T02020199  RH  098%=      5-min Rain = 0
KCA1 251121Z 27003KT 20/20 A2995 RMK A01 T02020199  RH  099%=      5-min Rain = 0
KCA1 251122Z 25003KT 20/20 A2995 RMK A01 T02020200  RH  099%=      5-min Rain = 0
KCA1 251123Z 21004KT 20/20 A2995 RMK A01 T02020201  RH  099%=      5-min Rain = 0
KCA1 251124Z 21004KT 20/20 A2995 RMK A01 T02030201  RH  099%=      5-min Rain = 0
KCA1 251125Z 23003KT 20/20 A2995 RMK A01 T02040201  RH  098%=      5-min Rain = 0
KCA1 251126Z 22002KT 21/20 A2995 RMK A01 T02050201  RH  097%=      5-min Rain = 0
KCA1 251127Z 20005KT 21/20 A2995 RMK A01 T02050200  RH  097%=      5-min Rain = 0
KCA1 251128Z 20005KT 21/20 A2995 RMK A01 T02050201  RH  097%=      5-min Rain = 0
KCA1 251129Z 20003KT 21/20 A2995 RMK A01 T02060201  RH  097%=      5-min Rain = 0
KCA1 251130Z 18003KT 21/20 A2995 RMK A01 T02060201  RH  097%=      5-min Rain = 0
KCA1 251131Z 19004KT 21/20 A2995 RMK A01 T02060201  RH  097%=      5-min Rain = 0
KCA1 251132Z 18005KT 21/20 A2995 RMK A01 T02060201  RH  097%=      5-min Rain = 0
KCA1 251133Z 19006KT 21/20 A2995 RMK A01 T02070202  RH  097%=      5-min Rain = 0
KCA1 251134Z 19007KT 21/20 A2996 RMK A01 T02070202  RH  097%=      5-min Rain = 0
KCA1 251135Z 19005KT 21/20 A2996 RMK A01 T02070202  RH  096%=      5-min Rain = 0
KCA1 251136Z 18006KT 21/20 A2995 RMK A01 T02080201  RH  096%=      5-min Rain = 0
KCA1 251137Z 20007KT 21/20 A2995 RMK A01 T02080202  RH  096%=      5-min Rain = 0
KCA1 251138Z 19005KT 21/20 A2995 RMK A01 T02090202  RH  096%=      5-min Rain = 0
KCA1 251139Z 18006KT 21/20 A2995 RMK A01 T02090202  RH  096%=      5-min Rain = 0
KCA1 251140Z 18007KT 21/20 A2996 RMK A01 T02090202  RH  096%=      5-min Rain = 0
KCA1 251141Z 18008KT 21/20 A2995 RMK A01 T02090202  RH  096%=      5-min Rain = 0
KCA1 251142Z 17007KT 21/20 A2995 RMK A01 T02100202  RH  095%=      5-min Rain = 0
KCA1 251143Z 17007KT 21/20 A2996 RMK A01 T02100202  RH  095%=      5-min Rain = 0
KCA1 251144Z 17006KT 21/20 A2995 RMK A01 T02100202  RH  095%=      5-min Rain = 0
KCA1 251145Z 17006KT 21/20 A2995 RMK A01 T02100202  RH  095%=      5-min Rain = 0
KCA1 251146Z 16005KT 21/20 A2996 RMK A01 T02100202  RH  095%=      5-min Rain = 0
KCA1 251147Z 16005KT 21/20 A2996 RMK A01 T02100202  RH  096%=      5-min Rain = 0
KCA1 251148Z 16004KT 21/20 A2996 RMK A01 T02090202  RH  096%=      5-min Rain = 0
KCA1 251149Z 16004KT 21/20 A2996 RMK A01 T02090202  RH  096%=      5-min Rain = 0
KCA1 251150Z 17004KT 21/20 A2996 RMK A01 T02090202  RH  096%=      5-min Rain = 0
KCA1 251151Z 17004KT 21/20 A2996 RMK A01 T02090202  RH  096%=      5-min Rain = 0
KCA1 251152Z 17003KT 21/20 A2996 RMK A01 T02080202  RH  096%=      5-min Rain = 0
KCA1 251153Z 17002KT 21/20 A2996 RMK A01 T02080202  RH  096%=      5-min Rain = 0
KCA1 251154Z 17002KT 21/20 A2996 RMK A01 T02080202  RH  096%=      5-min Rain = 0
KCA1 251155Z 17001KT 21/20 A2996 RMK A01 T02080202  RH  096%=      5-min Rain = 0
KCA1 251156Z 16001KT 21/20 A2996 RMK A01 T02080202  RH  096%=      5-min Rain = 0
KCA1 251157Z 16001KT 21/20 A2996 RMK A01 T02080202  RH  096%=      5-min Rain = 0
KCA1 251158Z 16001KT 21/20 A2996 RMK A01 T02080202  RH  096%=      5-min Rain = 0
KCA1 251159Z 14001KT 21/20 A2996 RMK A01 T02090203  RH  096%=      5-min Rain = 0
KCA1 251200Z 11001KT 21/20 A2996 RMK A01 T02090203  RH  096%=      5-min Rain = 0
KCA1 251201Z 11001KT 21/20 A2996 RMK A01 T02090203  RH  096%=      5-min Rain = 0
KCA1 251202Z 10001KT 21/20 A2996 RMK A01 T02090203  RH  097%=      5-min Rain = 0
KCA1 251203Z 11001KT 21/20 A2996 RMK A01 T02090203  RH  096%=      5-min Rain = 0
KCA1 251204Z 11002KT 21/20 A2996 RMK A01 T02090203  RH  096%=      5-min Rain = 0
KCA1 251205Z 11002KT 21/20 A2996 RMK A01 T02090203  RH  096%=      5-min Rain = 0
KCA1 251206Z 12002KT 21/20 A2996 RMK A01 T02090203  RH  096%=      5-min Rain = 0
KCA1 251207Z 13002KT 21/20 A2996 RMK A01 T02100204  RH  096%=      5-min Rain = 0
KCA1 251208Z 14002KT 21/20 A2996 RMK A01 T02100204  RH  096%=      5-min Rain = 0
KCA1 251209Z 14004KT 21/20 A2996 RMK A01 T02100204  RH  096%=      5-min Rain = 0
KCA1 251210Z 14004KT 21/20 A2996 RMK A01 T02100204  RH  096%=      5-min Rain = 0
KCA1 251211Z 15004KT 21/20 A2996 RMK A01 T02100204  RH  096%=      5-min Rain = 0
KCA1 251212Z 15004KT 21/20 A2996 RMK A01 T02110204  RH  096%=      5-min Rain = 0
KCA1 251213Z 15005KT 21/20 A2996 RMK A01 T02110204  RH  096%=      5-min Rain = 0
KCA1 251214Z 16004KT 21/20 A2997 RMK A01 T02110204  RH  096%=      5-min Rain = 0
KCA1 251215Z 15005KT 21/20 A2997 RMK A01 T02110204  RH  096%=      5-min Rain = 0
KCA1 251216Z 15005KT 21/20 A2996 RMK A01 T02110204  RH  096%=      5-min Rain = 0
KCA1 251217Z 15005KT 21/20 A2996 RMK A01 T02110204  RH  096%=      5-min Rain = 0
KCA1 251218Z 15005KT 21/20 A2996 RMK A01 T02110204  RH  096%=      5-min Rain = 0
KCA1 251219Z 15004KT 21/20 A2997 RMK A01 T02110203  RH  095%=      5-min Rain = 0
KCA1 251220Z 16003KT 21/20 A2997 RMK A01 T02100203  RH  096%=      5-min Rain = 0
KCA1 251221Z 16003KT 21/20 A2997 RMK A01 T02100203  RH  096%=      5-min Rain = 0
KCA1 251222Z 16004KT 21/20 A2997 RMK A01 T02100203  RH  096%=      5-min Rain = 0
KCA1 251223Z 17003KT 21/20 A2997 RMK A01 T02100203  RH  096%=      5-min Rain = 0
KCA1 251224Z 16003KT 21/20 A2997 RMK A01 T02100203  RH  096%=      5-min Rain = 0
KCA1 251225Z 16003KT 21/20 A2997 RMK A01 T02100203  RH  096%=      5-min Rain = 0
KCA1 251226Z 16004KT 21/20 A2997 RMK A01 T02100203  RH  096%=      5-min Rain = 0
KCA1 251227Z 16004KT 21/20 A2997 RMK A01 T02090203  RH  096%=      5-min Rain = 0
KCA1 251228Z 16003KT 21/20 A2997 RMK A01 T02100204  RH  096%=      5-min Rain = 0
KCA1 251229Z 16003KT 21/20 A2997 RMK A01 T02100204  RH  096%=      5-min Rain = 0
KCA1 251230Z 15003KT 21/20 A2997 RMK A01 T02110204  RH  096%=      5-min Rain = 0
KCA1 251231Z 16003KT 21/20 A2997 RMK A01 T02110204  RH  096%=      5-min Rain = 0
KCA1 251232Z 16004KT 21/20 A2997 RMK A01 T02120204  RH  095%=      5-min Rain = 0
KCA1 251233Z 16004KT 21/20 A2997 RMK A01 T02130204  RH  095%=      5-min Rain = 0
KCA1 251234Z 16004KT 21/20 A2997 RMK A01 T02140204  RH  094%=      5-min Rain = 0
KCA1 251235Z 16004KT 21/20 A2997 RMK A01 T02140204  RH  094%=      5-min Rain = 0
KCA1 251236Z 15005KT 22/20 A2997 RMK A01 T02150204  RH  093%=      5-min Rain = 0
KCA1 251237Z 15006KT 22/20 A2997 RMK A01 T02150204  RH  093%=      5-min Rain = 0
KCA1 251238Z 15006KT 22/20 A2997 RMK A01 T02160204  RH  093%=      5-min Rain = 0
KCA1 251239Z 15005KT 22/20 A2997 RMK A01 T02160204  RH  093%=      5-min Rain = 0
KCA1 251240Z 15006KT 22/21 A2997 RMK A01 T02170205  RH  093%=      5-min Rain = 0
KCA1 251241Z 15005KT 22/21 A2997 RMK A01 T02170205  RH  093%=      5-min Rain = 0
KCA1 251242Z 16006KT 22/20 A2997 RMK A01 T02180204  RH  092%=      5-min Rain = 0
KCA1 251243Z 16005KT 22/20 A2997 RMK A01 T02180204  RH  092%=      5-min Rain = 0
KCA1 251244Z 16004KT 22/20 A2997 RMK A01 T02180204  RH  092%=      5-min Rain = 0
KCA1 251245Z 17003KT 22/20 A2997 RMK A01 T02170203  RH  092%=      5-min Rain = 0
KCA1 251246Z 14003KT 22/20 A2997 RMK A01 T02170203  RH  092%=      5-min Rain = 0
KCA1 251247Z 15002KT 22/20 A2997 RMK A01 T02160203  RH  092%=      5-min Rain = 0
KCA1 251248Z 12002KT 22/20 A2997 RMK A01 T02150203  RH  092%=      5-min Rain = 0
KCA1 251249Z 13001KT 22/20 A2997 RMK A01 T02150203  RH  093%=      5-min Rain = 0
KCA1 251250Z 11001KT 21/20 A2997 RMK A01 T02140203  RH  093%=      5-min Rain = 0
KCA1 251251Z 07001KT 21/20 A2997 RMK A01 T02140202  RH  093%=      5-min Rain = 0
KCA1 251252Z 05001KT 21/20 A2997 RMK A01 T02140203  RH  093%=      5-min Rain = 0
KCA1 251253Z 06001KT 21/20 A2997 RMK A01 T02140203  RH  093%=      5-min Rain = 0
KCA1 251254Z 05002KT 22/20 A2997 RMK A01 T02150204  RH  093%=      5-min Rain = 0
KCA1 251255Z 08002KT 22/20 A2997 RMK A01 T02150203  RH  093%=      5-min Rain = 0
KCA1 251256Z 06002KT 22/20 A2997 RMK A01 T02150203  RH  093%=      5-min Rain = 0
KCA1 251257Z 08002KT 22/20 A2997 RMK A01 T02150203  RH  093%=      5-min Rain = 0
KCA1 251258Z 10002KT 22/20 A2997 RMK A01 T02150204  RH  093%=      5-min Rain = 0
KCA1 251259Z 09003KT 22/20 A2997 RMK A01 T02160204  RH  093%=      5-min Rain = 0
KCA1 251300Z 09003KT 22/20 A2997 RMK A01 T02160204  RH  093%=      5-min Rain = 0
KCA1 251301Z 09003KT 22/20 A2997 RMK A01 T02160204  RH  093%=      5-min Rain = 0
KCA1 251302Z 10003KT 22/20 A2997 RMK A01 T02160204  RH  093%=      5-min Rain = 0
KCA1 251303Z 12002KT 22/20 A2997 RMK A01 T02170204  RH  092%=      5-min Rain = 0
KCA1 251304Z 12002KT 22/20 A2997 RMK A01 T02170204  RH  093%=      5-min Rain = 0
KCA1 251305Z 13003KT 22/20 A2997 RMK A01 T02170204  RH  092%=      5-min Rain = 0
KCA1 251306Z 13003KT 22/20 A2997 RMK A01 T02170203  RH  091%=      5-min Rain = 0
KCA1 251307Z 12003KT 22/20 A2997 RMK A01 T02180203  RH  091%=      5-min Rain = 0
KCA1 251308Z 12002KT 22/20 A2997 RMK A01 T02190204  RH  091%=      5-min Rain = 0
KCA1 251309Z 12003KT 22/21 A2997 RMK A01 T02200206  RH  092%=      5-min Rain = 0
KCA1 251310Z 12003KT 22/21 A2997 RMK A01 T02210205  RH  091%=      5-min Rain = 0
KCA1 251311Z 14005KT 22/21 A2997 RMK A01 T02220205  RH  090%=      5-min Rain = 0
KCA1 251312Z 14004KT 22/20 A2997 RMK A01 T02230204  RH  089%=      5-min Rain = 0
KCA1 251313Z 14005KT 22/20 A2997 RMK A01 T02230204  RH  089%=      5-min Rain = 0
KCA1 251314Z 14003KT 22/20 A2997 RMK A01 T02240204  RH  088%=      5-min Rain = 0
KCA1 251315Z 15004KT 22/21 A2997 RMK A01 T02240205  RH  089%=      5-min Rain = 0
KCA1 251316Z 15003KT 22/20 A2997 RMK A01 T02240204  RH  088%=      5-min Rain = 0
KCA1 251317Z 15004KT 23/20 A2997 RMK A01 T02250204  RH  088%=      5-min Rain = 0
KCA1 251318Z 17004KT 23/21 A2997 RMK A01 T02250205  RH  088%=      5-min Rain = 0
KCA1 251319Z 17005KT 23/21 A2997 RMK A01 T02260205  RH  088%=      5-min Rain = 0
KCA1 251320Z 18004KT 23/21 A2997 RMK A01 T02280206  RH  087%=      5-min Rain = 0
KCA1 251321Z 17005KT 23/21 A2997 RMK A01 T02280205  RH  087%=      5-min Rain = 0
KCA1 251322Z 16005KT 23/21 A2997 RMK A01 T02280207  RH  088%=      5-min Rain = 0
KCA1 251323Z 17004KT 23/21 A2997 RMK A01 T02290205  RH  087%=      5-min Rain = 0
KCA1 251324Z 17004KT 23/21 A2997 RMK A01 T02280205  RH  086%=      5-min Rain = 0
KCA1 251325Z 18006KT 23/21 A2997 RMK A01 T02290205  RH  087%=      5-min Rain = 0
KCA1 251326Z 18006KT 23/20 A2997 RMK A01 T02280204  RH  086%=      5-min Rain = 0
KCA1 251327Z 17004KT 23/21 A2997 RMK A01 T02280206  RH  087%=      5-min Rain = 0
KCA1 251328Z 17004KT 23/21 A2997 RMK A01 T02280208  RH  088%=      5-min Rain = 0
KCA1 251329Z 16005KT 23/21 A2997 RMK A01 T02290207  RH  087%=      5-min Rain = 0
KCA1 251330Z 16005KT 23/21 A2997 RMK A01 T02290206  RH  087%=      5-min Rain = 0
KCA1 251331Z 14006KT 23/21 A2997 RMK A01 T02280205  RH  087%=      5-min Rain = 0
KCA1 251332Z 15006KT 23/21 A2998 RMK A01 T02270206  RH  088%=      5-min Rain = 0
KCA1 251333Z 15005KT 23/21 A2998 RMK A01 T02270206  RH  088%=      5-min Rain = 0
KCA1 251334Z 15005KT 23/21 A2998 RMK A01 T02270206  RH  088%=      5-min Rain = 0
KCA1 251335Z 15005KT 23/21 A2998 RMK A01 T02270206  RH  088%=      5-min Rain = 0
KCA1 251336Z 15007KT 23/21 A2998 RMK A01 T02270207  RH  089%=      5-min Rain = 0
KCA1 251337Z 14007KT 23/21 A2998 RMK A01 T02280208  RH  088%=      5-min Rain = 0
KCA1 251338Z 14006KT 23/21 A2998 RMK A01 T02290206  RH  087%=      5-min Rain = 0
KCA1 251339Z 14007KT 23/21 A2998 RMK A01 T02300207  RH  087%=      5-min Rain = 0
KCA1 251340Z 14005KT 23/21 A2998 RMK A01 T02310207  RH  087%=      5-min Rain = 0
KCA1 251341Z 15006KT 23/21 A2998 RMK A01 T02320210  RH  087%=      5-min Rain = 0
KCA1 251342Z 15006KT 23/21 A2998 RMK A01 T02330206  RH  085%=      5-min Rain = 0
KCA1 251343Z 15007KT 23/21 A2998 RMK A01 T02310206  RH  086%=      5-min Rain = 0
KCA1 251344Z 15006KT 23/21 A2998 RMK A01 T02300206  RH  087%=      5-min Rain = 0
KCA1 251345Z 15006KT 23/21 A2998 RMK A01 T02290207  RH  087%=      5-min Rain = 0
KCA1 251346Z 15007KT 23/21 A2998 RMK A01 T02280206  RH  087%=      5-min Rain = 0
KCA1 251347Z 16008KT 23/21 A2998 RMK A01 T02270206  RH  088%=      5-min Rain = 0
KCA1 251348Z 16008KT 23/21 A2998 RMK A01 T02270206  RH  088%=      5-min Rain = 0
KCA1 251349Z 17008KT 23/21 A2998 RMK A01 T02270206  RH  088%=      5-min Rain = 0
KCA1 251350Z 16007KT 23/21 A2998 RMK A01 T02260206  RH  088%=      5-min Rain = 0
KCA1 251351Z 17009KT 23/21 A2998 RMK A01 T02270207  RH  089%=      5-min Rain = 0
KCA1 251352Z 17010KT 23/21 A2998 RMK A01 T02270206  RH  088%=      5-min Rain = 0
KCA1 251353Z 18008KT 23/21 A2998 RMK A01 T02290206  RH  087%=      5-min Rain = 0
KCA1 251354Z 17008KT 23/21 A2998 RMK A01 T02310206  RH  086%=      5-min Rain = 0
KCA1 251355Z 17006KT 23/21 A2998 RMK A01 T02320206  RH  085%=      5-min Rain = 0
KCA1 251356Z 16009KT 23/21 A2998 RMK A01 T02340209  RH  086%=      5-min Rain = 0
KCA1 251357Z 17008KT 24/21 A2998 RMK A01 T02370209  RH  085%=      5-min Rain = 0
KCA1 251358Z 18007KT 24/21 A2998 RMK A01 T02390209  RH  083%=      5-min Rain = 0
KCA1 251359Z 20006KT 24/21 A2998 RMK A01 T02390208  RH  083%=      5-min Rain = 0
KCA1 251400Z 18004KT 24/21 A2998 RMK A01 T02380208  RH  083%=      5-min Rain = 0
KCA1 251401Z 19005KT 24/21 A2998 RMK A01 T02380210  RH  084%=      5-min Rain = 0
KCA1 251402Z 20005KT 24/21 A2999 RMK A01 T02400210  RH  083%=      5-min Rain = 0
KCA1 251403Z 19005KT 24/21 A2999 RMK A01 T02400208  RH  082%=      5-min Rain = 0
KCA1 251404Z 19005KT 24/21 A2999 RMK A01 T02390210  RH  084%=      5-min Rain = 0
KCA1 251405Z 19008KT 24/21 A2999 RMK A01 T02390210  RH  084%=      5-min Rain = 0
KCA1 251406Z 19009KT 24/21 A2999 RMK A01 T02390206  RH  082%=      5-min Rain = 0
KCA1 251407Z 19009KT 24/21 A2999 RMK A01 T02380205  RH  082%=      5-min Rain = 0
KCA1 251408Z 19007KT 24/21 A2999 RMK A01 T02380207  RH  082%=      5-min Rain = 0
KCA1 251409Z 17008KT 24/21 A2999 RMK A01 T02410207  RH  082%=      5-min Rain = 0
KCA1 251410Z 18008KT 24/21 A2999 RMK A01 T02430207  RH  080%=      5-min Rain = 0
KCA1 251411Z 19010KT 24/21 A2999 RMK A01 T02440209  RH  081%=      5-min Rain = 0
KCA1 251412Z 19008KT 24/21 A2999 RMK A01 T02440208  RH  080%=      5-min Rain = 0
KCA1 251413Z 20008KT 24/21 A2999 RMK A01 T02420207  RH  081%=      5-min Rain = 0
KCA1 251414Z 18009KT 24/21 A2999 RMK A01 T02410207  RH  081%=      5-min Rain = 0
KCA1 251415Z 18011KT 24/21 A2999 RMK A01 T02400208  RH  082%=      5-min Rain = 0
KCA1 251416Z 19010KT 24/21 A2999 RMK A01 T02400207  RH  082%=      5-min Rain = 0
KCA1 251417Z 19008KT 24/21 A2999 RMK A01 T02390207  RH  082%=      5-min Rain = 0
KCA1 251418Z 20008KT 24/21 A2999 RMK A01 T02380208  RH  083%=      5-min Rain = 0
KCA1 251419Z 19009KT 24/21 A2999 RMK A01 T02380206  RH  082%=      5-min Rain = 0
KCA1 251420Z 18008KT 24/21 A2999 RMK A01 T02390206  RH  082%=      5-min Rain = 0
KCA1 251421Z 18010KT 24/20 A2999 RMK A01 T02380204  RH  081%=      5-min Rain = 0
KCA1 251422Z 19009KT 24/20 A2999 RMK A01 T02380204  RH  081%=      5-min Rain = 0
KCA1 251423Z 19007KT 24/20 A2999 RMK A01 T02390204  RH  081%=      5-min Rain = 0
KCA1 251424Z 20007KT 24/20 A2999 RMK A01 T02390204  RH  081%=      5-min Rain = 0
KCA1 251425Z 19009KT 24/20 A2999 RMK A01 T02400204  RH  080%=      5-min Rain = 0
KCA1 251426Z 17009KT 24/20 A2999 RMK A01 T02390203  RH  080%=      5-min Rain = 0
KCA1 251427Z 17008KT 24/21 A2999 RMK A01 T02400205  RH  081%=      5-min Rain = 0
KCA1 251428Z 18009KT 24/20 A2999 RMK A01 T02410204  RH  080%=      5-min Rain = 0
KCA1 251429Z 19008KT 24/21 A2999 RMK A01 T02410206  RH  080%=      5-min Rain = 0
KCA1 251430Z 18009KT 24/21 A2999 RMK A01 T02410205  RH  080%=      5-min Rain = 0
KCA1 251431Z 18008KT 24/20 A2999 RMK A01 T02410204  RH  080%=      5-min Rain = 0
KCA1 251432Z 19008KT 24/20 A2999 RMK A01 T02390204  RH  081%=      5-min Rain = 0
KCA1 251433Z 17006KT 24/20 A2999 RMK A01 T02380203  RH  081%=      5-min Rain = 0
KCA1 251434Z 18005KT 24/21 A2999 RMK A01 T02380206  RH  082%=      5-min Rain = 0
KCA1 251435Z 20008KT 24/21 A2999 RMK A01 T02420205  RH  080%=      5-min Rain = 0
KCA1 251436Z 20006KT 24/20 A2999 RMK A01 T02430201  RH  077%=      5-min Rain = 0
KCA1 251437Z 19007KT 24/21 A2999 RMK A01 T02440206  RH  079%=      5-min Rain = 0
KCA1 251438Z 19009KT 25/21 A2999 RMK A01 T02470207  RH  078%=      5-min Rain = 0
KCA1 251439Z 19007KT 25/20 A2998 RMK A01 T02470204  RH  077%=      5-min Rain = 0
KCA1 251440Z 17009KT 25/20 A2998 RMK A01 T02460204  RH  077%=      5-min Rain = 0
KCA1 251441Z 16009KT 25/20 A2999 RMK A01 T02460204  RH  077%=      5-min Rain = 0
KCA1 251442Z 17010KT 24/20 A2999 RMK A01 T02440203  RH  078%=      5-min Rain = 0
KCA1 251443Z 17009KT 25/20 A2998 RMK A01 T02450204  RH  078%=      5-min Rain = 0
KCA1 251444Z 17009KT 25/20 A2998 RMK A01 T02450203  RH  077%=      5-min Rain = 0
KCA1 251445Z 17007KT 25/20 A2998 RMK A01 T02450202  RH  077%=      5-min Rain = 0
KCA1 251446Z 19009KT 24/20 A2998 RMK A01 T02430203  RH  078%=      5-min Rain = 0
KCA1 251447Z 19007KT 24/20 A2998 RMK A01 T02420202  RH  078%=      5-min Rain = 0
KCA1 251448Z 20007KT 24/20 A2998 RMK A01 T02410204  RH  080%=      5-min Rain = 0
KCA1 251449Z 19007KT 24/20 A2998 RMK A01 T02410202  RH  079%=      5-min Rain = 0
KCA1 251450Z 19007KT 24/20 A2998 RMK A01 T02410202  RH  079%=      5-min Rain = 0
KCA1 251451Z 18008KT 24/20 A2998 RMK A01 T02420203  RH  078%=      5-min Rain = 0
KCA1 251452Z 18008KT 25/20 A2998 RMK A01 T02450204  RH  078%=      5-min Rain = 0
KCA1 251453Z 17009KT 25/20 A2998 RMK A01 T02470203  RH  076%=      5-min Rain = 0
KCA1 251454Z 18009KT 25/20 A2998 RMK A01 T02480202  RH  076%=      5-min Rain = 0
KCA1 251455Z 18009KT 25/20 A2998 RMK A01 T02470203  RH  076%=      5-min Rain = 0
KCA1 251456Z 18008KT 25/20 A2998 RMK A01 T02470203  RH  076%=      5-min Rain = 0
KCA1 251457Z 18008KT 25/20 A2998 RMK A01 T02480202  RH  076%=      5-min Rain = 0
KCA1 251458Z 18009KT 25/20 A2998 RMK A01 T02480203  RH  076%=      5-min Rain = 0
KCA1 251459Z 18008KT 25/20 A2998 RMK A01 T02490201  RH  075%=      5-min Rain = 0
KCA1 251500Z 18008KT 25/20 A2998 RMK A01 T02490203  RH  075%=      5-min Rain = 0
KCA1 251501Z 17008KT 25/20 A2998 RMK A01 T02500204  RH  075%=      5-min Rain = 0
KCA1 251502Z 18008KT 25/21 A2998 RMK A01 T02510205  RH  076%=      5-min Rain = 0
KCA1 251503Z 18007KT 25/21 A2998 RMK A01 T02530205  RH  075%=      5-min Rain = 0
KCA1 251504Z 18008KT 25/21 A2998 RMK A01 T02520205  RH  075%=      5-min Rain = 0
KCA1 251505Z 17006KT 25/21 A2998 RMK A01 T02520206  RH  076%=      5-min Rain = 0
KCA1 251506Z 18008KT 25/21 A2998 RMK A01 T02540208  RH  076%=      5-min Rain = 0
KCA1 251507Z 16007KT 26/20 A2998 RMK A01 T02550204  RH  073%=      5-min Rain = 0
KCA1 251508Z 17006KT 26/21 A2998 RMK A01 T02550208  RH  075%=      5-min Rain = 0
KCA1 251509Z 16008KT 26/21 A2998 RMK A01 T02560206  RH  074%=      5-min Rain = 0
KCA1 251510Z 16005KT 26/21 A2998 RMK A01 T02570208  RH  074%=      5-min Rain = 0
KCA1 251511Z 18006KT 26/21 A2998 RMK A01 T02580209  RH  074%=      5-min Rain = 0
KCA1 251512Z 16006KT 26/21 A2998 RMK A01 T02600207  RH  073%=      5-min Rain = 0
KCA1 251513Z 16007KT 26/21 A2998 RMK A01 T02600207  RH  073%=      5-min Rain = 0
KCA1 251514Z 17006KT 26/20 A2998 RMK A01 T02600204  RH  071%=      5-min Rain = 0
KCA1 251515Z 17006KT 26/20 A2998 RMK A01 T02600204  RH  071%=      5-min Rain = 0
KCA1 251516Z 18008KT 26/21 A2999 RMK A01 T02610208  RH  072%=      5-min Rain = 0
KCA1 251517Z 17008KT 26/20 A2999 RMK A01 T02620202  RH  070%=      5-min Rain = 0
KCA1 251518Z 18004KT 26/20 A2998 RMK A01 T02620200  RH  069%=      5-min Rain = 0
KCA1 251519Z 17003KT 26/20 A2998 RMK A01 T02610203  RH  070%=      5-min Rain = 0
KCA1 251520Z 17004KT 26/21 A2998 RMK A01 T02620205  RH  071%=      5-min Rain = 0
KCA1 251521Z 17008KT 26/20 A2998 RMK A01 T02640204  RH  069%=      5-min Rain = 0
KCA1 251522Z 18008KT 27/20 A2998 RMK A01 T02660203  RH  068%=      5-min Rain = 0
KCA1 251523Z 18008KT 27/20 A2998 RMK A01 T02680203  RH  068%=      5-min Rain = 0
KCA1 251524Z 17006KT 27/20 A2998 RMK A01 T02670199  RH  066%=      5-min Rain = 0
KCA1 251525Z 19004KT 27/20 A2998 RMK A01 T02660203  RH  068%=      5-min Rain = 0
KCA1 251526Z 19003KT 27/20 A2998 RMK A01 T02660200  RH  067%=      5-min Rain = 0
KCA1 251527Z 19003KT 27/20 A2998 RMK A01 T02650204  RH  069%=      5-min Rain = 0
KCA1 251528Z 18009KT 27/21 A2998 RMK A01 T02660205  RH  069%=      5-min Rain = 0
KCA1 251529Z 18008KT 27/20 A2998 RMK A01 T02690200  RH  066%=      5-min Rain = 0
KCA1 251530Z 20007KT 27/20 A2998 RMK A01 T02690201  RH  067%=      5-min Rain = 0
KCA1 251531Z 20009KT 27/20 A2998 RMK A01 T02680200  RH  066%=      5-min Rain = 0
KCA1 251532Z 20007KT 27/20 A2998 RMK A01 T02680201  RH  067%=      5-min Rain = 0
KCA1 251533Z 18006KT 27/20 A2998 RMK A01 T02680203  RH  067%=      5-min Rain = 0
KCA1 251534Z 19005KT 27/20 A2998 RMK A01 T02700204  RH  067%=      5-min Rain = 0
KCA1 251535Z 19006KT 27/20 A2998 RMK A01 T02710204  RH  067%=      5-min Rain = 0
KCA1 251536Z 19006KT 27/20 A2998 RMK A01 T02730204  RH  066%=      5-min Rain = 0
KCA1 251537Z 19009KT 27/20 A2998 RMK A01 T02740204  RH  066%=      5-min Rain = 0
KCA1 251538Z 23008KT 27/20 A2998 RMK A01 T02740200  RH  064%=      5-min Rain = 0
KCA1 251539Z 23006KT 27/20 A2998 RMK A01 T02740198  RH  063%=      5-min Rain = 0
KCA1 251540Z 19007KT 27/20 A2998 RMK A01 T02740202  RH  065%=      5-min Rain = 0
KCA1 251541Z 18010KT 27/20 A2998 RMK A01 T02740202  RH  065%=      5-min Rain = 0
KCA1 251542Z 19010KT 28/20 A2998 RMK A01 T02750199  RH  063%=      5-min Rain = 0
KCA1 251543Z 19009KT 27/20 A2998 RMK A01 T02730201  RH  064%=      5-min Rain = 0
KCA1 251544Z 19008KT 27/20 A2998 RMK A01 T02730199  RH  064%=      5-min Rain = 0
KCA1 251545Z 19006KT 27/20 A2998 RMK A01 T02730200  RH  064%=      5-min Rain = 0
KCA1 251546Z 19006KT 27/20 A2998 RMK A01 T02740200  RH  064%=      5-min Rain = 0
KCA1 251547Z 20006KT 27/20 A2998 RMK A01 T02740199  RH  063%=      5-min Rain = 0
KCA1 251548Z 19004KT 27/20 A2998 RMK A01 T02740197  RH  063%=      5-min Rain = 0
KCA1 251549Z 21006KT 28/20 A2998 RMK A01 T02750197  RH  062%=      5-min Rain = 0
KCA1 251550Z 21007KT 28/20 A2998 RMK A01 T02760198  RH  062%=      5-min Rain = 0
KCA1 251551Z 21009KT 28/20 A2998 RMK A01 T02780196  RH  061%=      5-min Rain = 0
KCA1 251552Z 23009KT 28/20 A2998 RMK A01 T02790195  RH  060%=      5-min Rain = 0
KCA1 251553Z 23008KT 28/20 A2998 RMK A01 T02790195  RH  060%=      5-min Rain = 0
KCA1 251554Z 21007KT 28/19 A2998 RMK A01 T02790192  RH  059%=      5-min Rain = 0
KCA1 251555Z 21007KT 28/19 A2998 RMK A01 T02790190  RH  059%=      5-min Rain = 0
KCA1 251556Z 20007KT 28/19 A2998 RMK A01 T02790192  RH  059%=      5-min Rain = 0
KCA1 251557Z 19010KT 28/19 A2998 RMK A01 T02780194  RH  060%=      5-min Rain = 0
KCA1 251558Z 19011KT 28/19 A2998 RMK A01 T02780191  RH  059%=      5-min Rain = 0
KCA1 251559Z 20008KT 28/19 A2998 RMK A01 T02780192  RH  060%=      5-min Rain = 0
KCA1 251600Z 21007KT 28/19 A2998 RMK A01 T02770192  RH  060%=      5-min Rain = 0
KCA1 251601Z 20006KT 28/19 A2998 RMK A01 T02770193  RH  060%=      5-min Rain = 0
KCA1 251602Z 20007KT 28/19 A2998 RMK A01 T02780191  RH  059%=      5-min Rain = 0
KCA1 251603Z 21005KT 28/19 A2998 RMK A01 T02780194  RH  060%=      5-min Rain = 0
KCA1 251604Z 22008KT 28/20 A2998 RMK A01 T02800200  RH  062%=      5-min Rain = 0
KCA1 251605Z 21008KT 28/19 A2998 RMK A01 T02830194  RH  058%=      5-min Rain = 0
KCA1 251606Z 21008KT 28/20 A2998 RMK A01 T02830196  RH  059%=      5-min Rain = 0
KCA1 251607Z 21009KT 28/20 A2998 RMK A01 T02830195  RH  059%=      5-min Rain = 0
KCA1 251608Z 19008KT 28/19 A2998 RMK A01 T02840193  RH  058%=      5-min Rain = 0
KCA1 251609Z 19006KT 28/19 A2998 RMK A01 T02840190  RH  057%=      5-min Rain = 0
KCA1 251610Z 20008KT 28/19 A2998 RMK A01 T02840194  RH  058%=      5-min Rain = 0
KCA1 251611Z 22008KT 29/19 A2998 RMK A01 T02850194  RH  058%=      5-min Rain = 0
KCA1 251612Z 20006KT 29/19 A2998 RMK A01 T02850192  RH  057%=      5-min Rain = 0
KCA1 251613Z 21008KT 29/19 A2998 RMK A01 T02850191  RH  057%=      5-min Rain = 0
KCA1 251614Z 21007KT 29/19 A2998 RMK A01 T02850190  RH  057%=      5-min Rain = 0
KCA1 251615Z 19007KT 29/19 A2998 RMK A01 T02860194  RH  058%=      5-min Rain = 0
KCA1 251616Z 19009KT 29/19 A2998 RMK A01 T02870189  RH  055%=      5-min Rain = 0
KCA1 251617Z 19010KT 29/19 A2998 RMK A01 T02880192  RH  056%=      5-min Rain = 0
KCA1 251618Z 21010KT 29/19 A2998 RMK A01 T02890191  RH  056%=      5-min Rain = 0
KCA1 251619Z 19009KT 29/19 A2998 RMK A01 T02890191  RH  055%=      5-min Rain = 0
KCA1 251620Z 19008KT 29/19 A2998 RMK A01 T02890190  RH  055%=      5-min Rain = 0
KCA1 251621Z 20007KT 29/19 A2998 RMK A01 T02880188  RH  055%=      5-min Rain = 0
KCA1 251622Z 18006KT 29/19 A2998 RMK A01 T02880189  RH  055%=      5-min Rain = 0
KCA1 251623Z 20010KT 29/19 A2998 RMK A01 T02880191  RH  056%=      5-min Rain = 0
KCA1 251624Z 19009KT 29/19 A2998 RMK A01 T02890190  RH  055%=      5-min Rain = 0
KCA1 251625Z 20011KT 29/19 A2998 RMK A01 T02900189  RH  054%=      5-min Rain = 0
KCA1 251626Z 19010KT 29/19 A2998 RMK A01 T02880188  RH  055%=      5-min Rain = 0
KCA1 251627Z 19009KT 29/19 A2998 RMK A01 T02880188  RH  055%=      5-min Rain = 0
KCA1 251628Z 19009KT 29/19 A2998 RMK A01 T02880189  RH  055%=      5-min Rain = 0
KCA1 251629Z 20008KT 29/19 A2998 RMK A01 T02890189  RH  055%=      5-min Rain = 0
KCA1 251630Z 20007KT 29/19 A2998 RMK A01 T02890187  RH  054%=      5-min Rain = 0
KCA1 251631Z 20006KT 29/19 A2998 RMK A01 T02870187  RH  055%=      5-min Rain = 0
KCA1 251632Z 20006KT 29/19 A2998 RMK A01 T02870188  RH  055%=      5-min Rain = 0
KCA1 251633Z 20006KT 29/19 A2998 RMK A01 T02850186  RH  055%=      5-min Rain = 0
KCA1 251634Z 21006KT 29/19 A2998 RMK A01 T02850188  RH  056%=      5-min Rain = 0
KCA1 251635Z 21005KT 29/19 A2998 RMK A01 T02850187  RH  055%=      5-min Rain = 0
KCA1 251636Z 21005KT 29/19 A2998 RMK A01 T02860187  RH  055%=      5-min Rain = 0
KCA1 251637Z 20007KT 29/18 A2998 RMK A01 T02870184  RH  054%=      5-min Rain = 0
KCA1 251638Z 20005KT 29/18 A2998 RMK A01 T02870184  RH  054%=      5-min Rain = 0
KCA1 251639Z 19004KT 29/18 A2998 RMK A01 T02870183  RH  053%=      5-min Rain = 0
KCA1 251640Z 19003KT 29/19 A2998 RMK A01 T02880186  RH  054%=      5-min Rain = 0
KCA1 251641Z 16004KT 29/19 A2998 RMK A01 T02900188  RH  054%=      5-min Rain = 0
KCA1 251642Z 18004KT 29/19 A2998 RMK A01 T02930190  RH  054%=      5-min Rain = 0
KCA1 251643Z 18004KT 29/19 A2998 RMK A01 T02940186  RH  052%=      5-min Rain = 0
KCA1 251644Z 21001KT 29/18 A2998 RMK A01 T02940183  RH  051%=      5-min Rain = 0
KCA1 251645Z 16000KT 29/18 A2998 RMK A01 T02930182  RH  051%=      5-min Rain = 0
KCA1 251646Z 25000KT 29/19 A2998 RMK A01 T02930187  RH  053%=      5-min Rain = 0
KCA1 251647Z 18006KT 30/19 A2998 RMK A01 T02950189  RH  053%=      5-min Rain = 0
KCA1 251648Z 17006KT 30/19 A2998 RMK A01 T02960194  RH  054%=      5-min Rain = 0
KCA1 251649Z 17008KT 30/19 A2998 RMK A01 T02990189  RH  052%=      5-min Rain = 0
KCA1 251650Z 16006KT 30/19 A2998 RMK A01 T02990187  RH  051%=      5-min Rain = 0
KCA1 251651Z 15005KT 30/19 A2998 RMK A01 T02980187  RH  051%=      5-min Rain = 0
KCA1 251652Z 14004KT 30/19 A2998 RMK A01 T02970188  RH  052%=      5-min Rain = 0
KCA1 251653Z 16004KT 30/19 A2998 RMK A01 T02980189  RH  052%=      5-min Rain = 0
KCA1 251654Z 19005KT 30/19 A2998 RMK A01 T02980190  RH  052%=      5-min Rain = 0
KCA1 251655Z 17005KT 30/19 A2998 RMK A01 T02990186  RH  051%=      5-min Rain = 0
KCA1 251656Z 17004KT 30/18 A2998 RMK A01 T02980183  RH  050%=      5-min Rain = 0
KCA1 251657Z 18003KT 30/18 A2998 RMK A01 T02970182  RH  050%=      5-min Rain = 0
KCA1 251658Z 13003KT 30/18 A2998 RMK A01 T02960183  RH  051%=      5-min Rain = 0
KCA1 251659Z 09002KT 30/18 A2998 RMK A01 T02960181  RH  050%=      5-min Rain = 0
KCA1 251700Z 13002KT 30/18 A2998 RMK A01 T02960183  RH  051%=      5-min Rain = 0
KCA1 251701Z 13003KT 30/18 A2998 RMK A01 T02980183  RH  050%=      5-min Rain = 0
KCA1 251702Z 14001KT 30/18 A2998 RMK A01 T02980182  RH  050%=      5-min Rain = 0
KCA1 251703Z 15003KT 30/19 A2998 RMK A01 T02980186  RH  051%=      5-min Rain = 0
KCA1 251704Z 11003KT 30/19 A2998 RMK A01 T02990186  RH  051%=      5-min Rain = 0
KCA1 251705Z 11001KT 30/18 A2998 RMK A01 T02990184  RH  050%=      5-min Rain = 0
KCA1 251706Z 30001KT 30/19 A2998 RMK A01 T03000185  RH  050%=      5-min Rain = 0
KCA1 251707Z 20002G7KT 30/19 A2998 RMK A01 T03000187  RH  051%=      5-min Rain = 0
KCA1 251708Z 20007KT 30/19 A2998 RMK A01 T03010187  RH  050%=      5-min Rain = 0
KCA1 251709Z 20007KT 30/19 A2998 RMK A01 T03020188  RH  051%=      5-min Rain = 0
KCA1 251710Z 20006KT 30/19 A2998 RMK A01 T03020187  RH  050%=      5-min Rain = 0
KCA1 251711Z 21006KT 30/19 A2998 RMK A01 T03010185  RH  050%=      5-min Rain = 0
KCA1 251712Z 21004KT 30/19 A2998 RMK A01 T03010186  RH  050%=      5-min Rain = 0
KCA1 251713Z 21003KT 30/18 A2998 RMK A01 T03010184  RH  050%=      5-min Rain = 0
KCA1 251714Z 17006KT 30/19 A2998 RMK A01 T03000186  RH  050%=      5-min Rain = 0
KCA1 251715Z 17006KT 30/19 A2998 RMK A01 T03010187  RH  050%=      5-min Rain = 0
KCA1 251716Z 18006KT 30/19 A2998 RMK A01 T03030186  RH  050%=      5-min Rain = 0
KCA1 251717Z 19002KT 30/18 A2998 RMK A01 T03040184  RH  049%=      5-min Rain = 0
KCA1 251718Z 18001KT 30/18 A2998 RMK A01 T03030182  RH  048%=      5-min Rain = 0
KCA1 251719Z 31000KT 30/18 A2998 RMK A01 T03030181  RH  048%=      5-min Rain = 0
KCA1 251720Z 29000KT 30/18 A2998 RMK A01 T03030181  RH  048%=      5-min Rain = 0
KCA1 251721Z 26000KT 30/19 A2998 RMK A01 T03040189  RH  050%=      5-min Rain = 0
KCA1 251722Z 25001KT 31/18 A2998 RMK A01 T03060184  RH  048%=      5-min Rain = 0
KCA1 251723Z 27004KT 31/19 A2998 RMK A01 T03070187  RH  049%=      5-min Rain = 0
KCA1 251724Z 28003KT 31/18 A2998 RMK A01 T03060179  RH  046%=      5-min Rain = 0
KCA1 251725Z 28001KT 30/18 A2998 RMK A01 T03030178  RH  047%=      5-min Rain = 0
KCA1 251726Z 00000KT 30/18 A2998 RMK A01 T03020176  RH  047%=      5-min Rain = 0
KCA1 251727Z 27001KT 30/18 A2998 RMK A01 T03010180  RH  048%=      5-min Rain = 0
KCA1 251728Z 23001KT 30/19 A2997 RMK A01 T03030186  RH  049%=      5-min Rain = 0
KCA1 251729Z 13002KT 31/18 A2997 RMK A01 T03060181  RH  047%=      5-min Rain = 0
KCA1 251730Z 10005KT 31/18 A2997 RMK A01 T03070184  RH  048%=      5-min Rain = 0
KCA1 251731Z 09004KT 31/19 A2997 RMK A01 T03070187  RH  048%=      5-min Rain = 0
KCA1 251732Z 10004KT 31/19 A2997 RMK A01 T03080187  RH  048%=      5-min Rain = 0
KCA1 251733Z 17007KT 31/19 A2997 RMK A01 T03090190  RH  049%=      5-min Rain = 0
KCA1 251734Z 18008KT 31/19 A2997 RMK A01 T03100187  RH  048%=      5-min Rain = 0
KCA1 251735Z 16007KT 31/19 A2997 RMK A01 T03110187  RH  048%=      5-min Rain = 0
KCA1 251736Z 16007KT 31/18 A2997 RMK A01 T03110183  RH  046%=      5-min Rain = 0
KCA1 251737Z 17008KT 31/18 A2997 RMK A01 T03100182  RH  046%=      5-min Rain = 0
KCA1 251738Z 17007KT 31/18 A2998 RMK A01 T03090183  RH  047%=      5-min Rain = 0
KCA1 251739Z 17004KT 31/18 A2998 RMK A01 T03090183  RH  047%=      5-min Rain = 0
KCA1 251740Z 15004KT 31/19 A2998 RMK A01 T03100185  RH  048%=      5-min Rain = 0
KCA1 251741Z 16004KT 31/18 A2998 RMK A01 T03110182  RH  046%=      5-min Rain = 0
KCA1 251742Z 18004KT 31/18 A2998 RMK A01 T03130183  RH  046%=      5-min Rain = 0
KCA1 251743Z 20004KT 31/18 A2998 RMK A01 T03130181  RH  045%=      5-min Rain = 0
KCA1 251744Z 14001KT 31/18 A2998 RMK A01 T03120176  RH  044%=      5-min Rain = 0
KCA1 251745Z 15001KT 31/18 A2998 RMK A01 T03110178  RH  045%=      5-min Rain = 0
KCA1 251746Z 18003KT 31/18 A2998 RMK A01 T03100184  RH  047%=      5-min Rain = 0
KCA1 251747Z 14005KT 31/18 A2998 RMK A01 T03120184  RH  046%=      5-min Rain = 0
KCA1 251748Z 16005KT 31/18 A2998 RMK A01 T03120184  RH  047%=      5-min Rain = 0
KCA1 251749Z 18003KT 31/18 A2998 RMK A01 T03140184  RH  046%=      5-min Rain = 0
KCA1 251750Z 16003KT 31/18 A2998 RMK A01 T03140179  RH  045%=      5-min Rain = 0
KCA1 251751Z 11002KT 31/18 A2998 RMK A01 T03140182  RH  045%=      5-min Rain = 0
KCA1 251752Z 11006KT 31/19 A2998 RMK A01 T03130186  RH  047%=      5-min Rain = 0
KCA1 251753Z 10007KT 31/20 A2998 RMK A01 T03140198  RH  050%=      5-min Rain = 0
KCA1 251754Z 12010KT 31/20 A2998 RMK A01 T03100202  RH  053%=      5-min Rain = 0
KCA1 251755Z 13010KT 31/20 A2998 RMK A01 T03090201  RH  052%=      5-min Rain = 0
KCA1 251756Z 11007KT 31/20 A2998 RMK A01 T03080200  RH  052%=      5-min Rain = 0
KCA1 251757Z 12005KT 31/19 A2998 RMK A01 T03070194  RH  051%=      5-min Rain = 0
KCA1 251758Z 11003KT 31/20 A2998 RMK A01 T03060201  RH  053%=      5-min Rain = 0
KCA1 251759Z 08004KT 31/20 A2997 RMK A01 T03080200  RH  053%=      5-min Rain = 0
KCA1 251800Z 08009KT 31/20 A2997 RMK A01 T03080202  RH  053%=      5-min Rain = 0
KCA1 251801Z 09009KT 31/20 A2997 RMK A01 T03080203  RH  053%=      5-min Rain = 0
KCA1 251802Z 11009KT 31/20 A2997 RMK A01 T03070202  RH  053%=      5-min Rain = 0
KCA1 251803Z 10010KT 31/20 A2997 RMK A01 T03070200  RH  053%=      5-min Rain = 0
KCA1 251804Z 11008KT 31/20 A2997 RMK A01 T03060200  RH  053%=      5-min Rain = 0
KCA1 251805Z 08009KT 31/21 A2997 RMK A01 T03060205  RH  055%=      5-min Rain = 0
KCA1 251806Z 07011KT 31/21 A2997 RMK A01 T03060205  RH  055%=      5-min Rain = 0
KCA1 251807Z 07006KT 31/21 A2997 RMK A01 T03060207  RH  055%=      5-min Rain = 0
KCA1 251808Z 07011KT 31/21 A2997 RMK A01 T03070206  RH  055%=      5-min Rain = 0
KCA1 251809Z 10012KT 31/21 A2997 RMK A01 T03080205  RH  054%=      5-min Rain = 0
KCA1 251810Z 09009KT 31/20 A2997 RMK A01 T03080202  RH  053%=      5-min Rain = 0
KCA1 251811Z 09007KT 31/20 A2997 RMK A01 T03070204  RH  054%=      5-min Rain = 0
KCA1 251812Z 07008KT 31/20 A2997 RMK A01 T03070203  RH  054%=      5-min Rain = 0
KCA1 251813Z 11009KT 31/21 A2997 RMK A01 T03060210  RH  056%=      5-min Rain = 0
KCA1 251814Z 09009KT 31/21 A2997 RMK A01 T03100211  RH  056%=      5-min Rain = 0
KCA1 251815Z 12012KT 31/21 A2997 RMK A01 T03110207  RH  054%=      5-min Rain = 0
KCA1 251816Z 12010KT 31/21 A2997 RMK A01 T03110209  RH  055%=      5-min Rain = 0
KCA1 251817Z 10011KT 31/21 A2997 RMK A01 T03120208  RH  054%=      5-min Rain = 0
KCA1 251818Z 09010KT 31/20 A2997 RMK A01 T03110204  RH  053%=      5-min Rain = 0
KCA1 251819Z 10007KT 31/20 A2997 RMK A01 T03080202  RH  053%=      5-min Rain = 0
KCA1 251820Z 10008KT 31/20 A2997 RMK A01 T03050203  RH  055%=      5-min Rain = 0
KCA1 251821Z 10013KT 31/21 A2997 RMK A01 T03050205  RH  055%=      5-min Rain = 0
KCA1 251822Z 09011KT 31/21 A2997 RMK A01 T03060205  RH  055%=      5-min Rain = 0
KCA1 251823Z 09011KT 31/20 A2997 RMK A01 T03060203  RH  054%=      5-min Rain = 0
KCA1 251824Z 09008KT 31/21 A2997 RMK A01 T03050205  RH  055%=      5-min Rain = 0
KCA1 251825Z 09009G14KT 31/21 A2997 RMK A01 T03050207  RH  056%=      5-min Rain = 0
KCA1 251826Z 09010KT 31/20 A2997 RMK A01 T03060204  RH  055%=      5-min Rain = 0
KCA1 251827Z 12011KT 31/21 A2997 RMK A01 T03050206  RH  055%=      5-min Rain = 0
KCA1 251828Z 12009KT 31/20 A2997 RMK A01 T03060204  RH  054%=      5-min Rain = 0
KCA1 251829Z 12012KT 31/21 A2997 RMK A01 T03070205  RH  055%=      5-min Rain = 0
KCA1 251830Z 11010KT 31/20 A2997 RMK A01 T03080204  RH  054%=      5-min Rain = 0
KCA1 251831Z 11011KT 31/21 A2997 RMK A01 T03090207  RH  055%=      5-min Rain = 0
KCA1 251832Z 10011KT 31/20 A2997 RMK A01 T03100203  RH  053%=      5-min Rain = 0
KCA1 251833Z 09008KT 31/20 A2997 RMK A01 T03080202  RH  053%=      5-min Rain = 0
KCA1 251834Z 09012KT 31/20 A2997 RMK A01 T03070204  RH  054%=      5-min Rain = 0
KCA1 251835Z 11010KT 31/20 A2997 RMK A01 T03070202  RH  053%=      5-min Rain = 0
KCA1 251836Z 10008KT 31/20 A2997 RMK A01 T03060202  RH  054%=      5-min Rain = 0
KCA1 251837Z 11008KT 31/20 A2997 RMK A01 T03070204  RH  054%=      5-min Rain = 0
KCA1 251838Z 13010KT 31/20 A2997 RMK A01 T03080204  RH  054%=      5-min Rain = 0
KCA1 251839Z 12012KT 31/21 A2997 RMK A01 T03090205  RH  054%=      5-min Rain = 0
KCA1 251840Z 13012KT 31/21 A2997 RMK A01 T03110205  RH  053%=      5-min Rain = 0
KCA1 251841Z 10009KT 31/21 A2997 RMK A01 T03100205  RH  053%=      5-min Rain = 0
KCA1 251842Z 10009KT 31/21 A2997 RMK A01 T03090210  RH  056%=      5-min Rain = 0
KCA1 251843Z 09013KT 31/21 A2997 RMK A01 T03110208  RH  054%=      5-min Rain = 0
KCA1 251844Z 10013KT 31/21 A2997 RMK A01 T03110208  RH  054%=      5-min Rain = 0
KCA1 251845Z 10011KT 31/21 A2997 RMK A01 T03120207  RH  054%=      5-min Rain = 0
KCA1 251846Z 11010KT 31/21 A2997 RMK A01 T03120207  RH  054%=      5-min Rain = 0
KCA1 251847Z 12011KT 31/21 A2997 RMK A01 T03120208  RH  054%=      5-min Rain = 0
KCA1 251848Z 09012KT 31/21 A2997 RMK A01 T03140206  RH  053%=      5-min Rain = 0
KCA1 251849Z 10013KT 31/21 A2997 RMK A01 T03140205  RH  052%=      5-min Rain = 0
KCA1 251850Z 11012KT 31/20 A2997 RMK A01 T03140202  RH  052%=      5-min Rain = 0
KCA1 251851Z 11011KT 31/20 A2997 RMK A01 T03120201  RH  052%=      5-min Rain = 0
KCA1 251852Z 12008KT 31/20 A2997 RMK A01 T03100202  RH  053%=      5-min Rain = 0
KCA1 251853Z 12007KT 31/21 A2997 RMK A01 T03120205  RH  053%=      5-min Rain = 0
KCA1 251854Z 09010KT 32/20 A2997 RMK A01 T03150204  RH  052%=      5-min Rain = 0
KCA1 251855Z 10010KT 31/20 A2997 RMK A01 T03140204  RH  052%=      5-min Rain = 0
KCA1 251856Z 11011KT 31/20 A2997 RMK A01 T03120202  RH  052%=      5-min Rain = 0
KCA1 251857Z 11012KT 31/20 A2997 RMK A01 T03110203  RH  053%=      5-min Rain = 0
KCA1 251858Z 11009KT 31/20 A2997 RMK A01 T03120201  RH  052%=      5-min Rain = 0
KCA1 251859Z 12012KT 31/20 A2997 RMK A01 T03100203  RH  053%=      5-min Rain = 0
KCA1 251900Z 11010KT 31/20 A2997 RMK A01 T03090202  RH  053%=      5-min Rain = 0
KCA1 251901Z 09010KT 31/21 A2997 RMK A01 T03070208  RH  055%=      5-min Rain = 0
KCA1 251902Z 09011KT 31/21 A2996 RMK A01 T03070210  RH  056%=      5-min Rain = 0
KCA1 251903Z 09012KT 31/21 A2997 RMK A01 T03080214  RH  057%=      5-min Rain = 0
KCA1 251904Z 09014KT 31/21 A2996 RMK A01 T03110212  RH  055%=      5-min Rain = 0
KCA1 251905Z 11010KT 31/21 A2996 RMK A01 T03100209  RH  055%=      5-min Rain = 0
KCA1 251906Z 14010G16KT 31/21 A2996 RMK A01 T03100208  RH  055%=      5-min Rain = 0
KCA1 251907Z 13013KT 31/21 A2996 RMK A01 T03140209  RH  054%=      5-min Rain = 0
KCA1 251908Z 13010KT 32/21 A2996 RMK A01 T03160206  RH  052%=      5-min Rain = 0
KCA1 251909Z 12009KT 32/21 A2996 RMK A01 T03160206  RH  052%=      5-min Rain = 0
KCA1 251910Z 12014KT 31/21 A2996 RMK A01 T03140208  RH  053%=      5-min Rain = 0
KCA1 251911Z 11016KT 31/20 A2996 RMK A01 T03140203  RH  052%=      5-min Rain = 0
KCA1 251912Z 12011KT 31/21 A2996 RMK A01 T03130205  RH  053%=      5-min Rain = 0
KCA1 251913Z 12009KT 31/21 A2996 RMK A01 T03120205  RH  053%=      5-min Rain = 0
KCA1 251914Z 11013KT 31/21 A2996 RMK A01 T03120209  RH  054%=      5-min Rain = 0
KCA1 251915Z 10013KT 31/21 A2996 RMK A01 T03130207  RH  053%=      5-min Rain = 0
KCA1 251916Z 12013KT 31/21 A2996 RMK A01 T03130208  RH  054%=      5-min Rain = 0
KCA1 251917Z 14014KT 31/20 A2996 RMK A01 T03140201  RH  051%=      5-min Rain = 0
KCA1 251918Z 13012KT 31/20 A2996 RMK A01 T03120201  RH  052%=      5-min Rain = 0
KCA1 251919Z 15009KT 31/20 A2996 RMK A01 T03120199  RH  051%=      5-min Rain = 0
KCA1 251920Z 12010KT 31/20 A2996 RMK A01 T03130200  RH  051%=      5-min Rain = 0
KCA1 251921Z 12011KT 32/20 A2996 RMK A01 T03160199  RH  050%=      5-min Rain = 0
KCA1 251922Z 11010KT 32/20 A2996 RMK A01 T03170195  RH  048%=      5-min Rain = 0
KCA1 251923Z 12010KT 32/20 A2996 RMK A01 T03150196  RH  049%=      5-min Rain = 0
KCA1 251924Z 12011KT 31/20 A2996 RMK A01 T03140199  RH  050%=      5-min Rain = 0
KCA1 251925Z 12013KT 31/20 A2995 RMK A01 T03140203  RH  052%=      5-min Rain = 0
KCA1 251926Z 12014KT 31/21 A2995 RMK A01 T03140205  RH  052%=      5-min Rain = 0
KCA1 251927Z 11015KT 32/21 A2995 RMK A01 T03150207  RH  053%=      5-min Rain = 0
KCA1 251928Z 11016G22KT 31/21 A2995 RMK A01 T03140205  RH  053%=      5-min Rain = 0
KCA1 251929Z 12014KT 31/21 A2995 RMK A01 T03140208  RH  053%=      5-min Rain = 0
KCA1 251930Z 12011KT 32/21 A2995 RMK A01 T03150207  RH  053%=      5-min Rain = 0
KCA1 251931Z 11013KT 31/21 A2995 RMK A01 T03140209  RH  054%=      5-min Rain = 0
KCA1 251932Z 12009KT 32/21 A2995 RMK A01 T03150208  RH  053%=      5-min Rain = 0
KCA1 251933Z 11009KT 32/21 A2995 RMK A01 T03150208  RH  053%=      5-min Rain = 0
KCA1 251934Z 11012KT 31/21 A2995 RMK A01 T03140210  RH  054%=      5-min Rain = 0
KCA1 251935Z 13012G17KT 31/21 A2995 RMK A01 T03140213  RH  055%=      5-min Rain = 0
KCA1 251936Z 15014KT 32/21 A2995 RMK A01 T03160206  RH  052%=      5-min Rain = 0
KCA1 251937Z 13013KT 32/21 A2995 RMK A01 T03160205  RH  052%=      5-min Rain = 0
KCA1 251938Z 13011KT 32/21 A2995 RMK A01 T03150206  RH  052%=      5-min Rain = 0
KCA1 251939Z 12012KT 32/21 A2995 RMK A01 T03150206  RH  052%=      5-min Rain = 0
KCA1 251940Z 12010KT 32/21 A2995 RMK A01 T03150206  RH  053%=      5-min Rain = 0
KCA1 251941Z 14012KT 32/21 A2995 RMK A01 T03150211  RH  054%=      5-min Rain = 0
KCA1 251942Z 12009KT 32/21 A2995 RMK A01 T03170209  RH  053%=      5-min Rain = 0
KCA1 251943Z 11009KT 32/21 A2995 RMK A01 T03170213  RH  054%=      5-min Rain = 0
KCA1 251944Z 12011G17KT 32/21 A2995 RMK A01 T03180212  RH  054%=      5-min Rain = 0
KCA1 251945Z 13013KT 32/21 A2995 RMK A01 T03170210  RH  053%=      5-min Rain = 0
KCA1 251946Z 13011KT 32/21 A2995 RMK A01 T03160210  RH  053%=      5-min Rain = 0
KCA1 251947Z 12011KT 32/21 A2995 RMK A01 T03160212  RH  054%=      5-min Rain = 0
KCA1 251948Z 13011G16KT 32/22 A2994 RMK A01 T03170215  RH  055%=      5-min Rain = 0
KCA1 251949Z 14015KT 32/21 A2994 RMK A01 T03170213  RH  054%=      5-min Rain = 0
KCA1 251950Z 14015KT 32/21 A2994 RMK A01 T03170214  RH  054%=      5-min Rain = 0
KCA1 251951Z 14013KT 32/22 A2994 RMK A01 T03160217  RH  056%=      5-min Rain = 0
KCA1 251952Z 12012KT 32/22 A2995 RMK A01 T03170217  RH  055%=      5-min Rain = 0
KCA1 251953Z 13015KT 32/22 A2995 RMK A01 T03190216  RH  055%=      5-min Rain = 0
KCA1 251954Z 14013KT 32/22 A2994 RMK A01 T03180215  RH  054%=      5-min Rain = 0
KCA1 251955Z 13010KT 32/22 A2994 RMK A01 T03180218  RH  055%=      5-min Rain = 0
KCA1 251956Z 13010KT 32/22 A2994 RMK A01 T03190218  RH  055%=      5-min Rain = 0
KCA1 251957Z 14015KT 32/22 A2994 RMK A01 T03200216  RH  054%=      5-min Rain = 0
KCA1 251958Z 14013KT 32/21 A2994 RMK A01 T03190214  RH  054%=      5-min Rain = 0
KCA1 251959Z 14015KT 32/22 A2994 RMK A01 T03170215  RH  055%=      5-min Rain = 0
KCA1 252000Z 14017G22KT 32/22 A2994 RMK A01 T03160217  RH  056%=      5-min Rain = 0
KCA1 252001Z 13014G19KT 32/22 A2994 RMK A01 T03160216  RH  056%=      5-min Rain = 0
KCA1 252002Z 14014KT 32/22 A2994 RMK A01 T03160218  RH  056%=      5-min Rain = 0
KCA1 252003Z 12013KT 32/22 A2994 RMK A01 T03160217  RH  056%=      5-min Rain = 0
KCA1 252004Z 12013KT 32/22 A2994 RMK A01 T03160217  RH  056%=      5-min Rain = 0
KCA1 252005Z 13016KT 32/21 A2994 RMK A01 T03160213  RH  054%=      5-min Rain = 0
KCA1 252006Z 13012KT 31/21 A2994 RMK A01 T03140212  RH  055%=      5-min Rain = 0
KCA1 252007Z 13010KT 31/22 A2994 RMK A01 T03130215  RH  056%=      5-min Rain = 0
KCA1 252008Z 11010G15KT 31/22 A2994 RMK A01 T03130215  RH  056%=      5-min Rain = 0
KCA1 252009Z 12014KT 32/21 A2994 RMK A01 T03150214  RH  055%=      5-min Rain = 0
KCA1 252010Z 13015KT 32/21 A2994 RMK A01 T03160214  RH  055%=      5-min Rain = 0
KCA1 252011Z 13012KT 32/22 A2994 RMK A01 T03160215  RH  055%=      5-min Rain = 0
KCA1 252012Z 12014KT 32/22 A2994 RMK A01 T03150216  RH  056%=      5-min Rain = 0
KCA1 252013Z 12011KT 32/22 A2994 RMK A01 T03150218  RH  056%=      5-min Rain = 0
KCA1 252014Z 12013KT 32/22 A2994 RMK A01 T03160217  RH  056%=      5-min Rain = 0
KCA1 252015Z 12015KT 32/21 A2994 RMK A01 T03170213  RH  054%=      5-min Rain = 0
KCA1 252016Z 13014KT 32/21 A2994 RMK A01 T03170209  RH  053%=      5-min Rain = 0
KCA1 252017Z 14015KT 32/21 A2994 RMK A01 T03170205  RH  051%=      5-min Rain = 0
KCA1 252018Z 14015KT 32/20 A2994 RMK A01 T03180204  RH  051%=      5-min Rain = 0
KCA1 252019Z 15014G20KT 32/20 A2994 RMK A01 T03180204  RH  051%=      5-min Rain = 0
KCA1 252020Z 15011KT 32/21 A2993 RMK A01 T03180208  RH  052%=      5-min Rain = 0
KCA1 252021Z 13012KT 32/21 A2994 RMK A01 T03190208  RH  052%=      5-min Rain = 0
KCA1 252022Z 13010KT 32/21 A2993 RMK A01 T03190210  RH  053%=      5-min Rain = 0
KCA1 252023Z 13014KT 32/21 A2993 RMK A01 T03210209  RH  052%=      5-min Rain = 0
KCA1 252024Z 12016KT 32/21 A2993 RMK A01 T03210207  RH  051%=      5-min Rain = 0
KCA1 252025Z 12013KT 32/21 A2993 RMK A01 T03200208  RH  052%=      5-min Rain = 0
KCA1 252026Z 12011KT 32/21 A2993 RMK A01 T03180209  RH  052%=      5-min Rain = 0
KCA1 252027Z 12011KT 32/21 A2993 RMK A01 T03180208  RH  052%=      5-min Rain = 0
KCA1 252028Z 11010KT 32/21 A2993 RMK A01 T03190208  RH  052%=      5-min Rain = 0
KCA1 252029Z 12012G17KT 32/21 A2993 RMK A01 T03180206  RH  052%=      5-min Rain = 0
KCA1 252030Z 13013KT 32/20 A2993 RMK A01 T03180203  RH  050%=      5-min Rain = 0
KCA1 252031Z 13013KT 32/20 A2993 RMK A01 T03200202  RH  050%=      5-min Rain = 0
KCA1 252032Z 14016G21KT 32/20 A2993 RMK A01 T03220204  RH  050%=      5-min Rain = 0
KCA1 252033Z 15016KT 32/20 A2993 RMK A01 T03220204  RH  050%=      5-min Rain = 0
KCA1 252034Z 15014KT 32/21 A2993 RMK A01 T03230207  RH  051%=      5-min Rain = 0
KCA1 252035Z 13013KT 32/21 A2993 RMK A01 T03230205  RH  050%=      5-min Rain = 0
KCA1 252036Z 14010KT 32/21 A2993 RMK A01 T03230207  RH  050%=      5-min Rain = 0
KCA1 252037Z 14012KT 32/20 A2993 RMK A01 T03240204  RH  049%=      5-min Rain = 0
KCA1 252038Z 15014KT 32/21 A2993 RMK A01 T03240206  RH  050%=      5-min Rain = 0
KCA1 252039Z 15012KT 32/20 A2993 RMK A01 T03240203  RH  049%=      5-min Rain = 0
KCA1 252040Z 15010KT 32/20 A2993 RMK A01 T03240202  RH  049%=      5-min Rain = 0
KCA1 252041Z 14008KT 32/20 A2993 RMK A01 T03220202  RH  049%=      5-min Rain = 0
KCA1 252042Z 14011KT 32/21 A2993 RMK A01 T03210206  RH  051%=      5-min Rain = 0
KCA1 252043Z 15011KT 32/21 A2993 RMK A01 T03240206  RH  050%=      5-min Rain = 0
KCA1 252044Z 17012KT 33/20 A2993 RMK A01 T03250202  RH  048%=      5-min Rain = 0
KCA1 252045Z 16011KT 33/20 A2993 RMK A01 T03270196  RH  046%=      5-min Rain = 0
KCA1 252046Z 16011KT 33/20 A2993 RMK A01 T03280197  RH  046%=      5-min Rain = 0
KCA1 252047Z 17012KT 33/20 A2993 RMK A01 T03290202  RH  047%=      5-min Rain = 0
KCA1 252048Z 14013KT 33/20 A2992 RMK A01 T03290200  RH  047%=      5-min Rain = 0
KCA1 252049Z 16012KT 33/20 A2993 RMK A01 T03280202  RH  047%=      5-min Rain = 0
KCA1 252050Z 17014KT 33/19 A2992 RMK A01 T03280192  RH  045%=      5-min Rain = 0
KCA1 252051Z 16010KT 33/19 A2992 RMK A01 T03280190  RH  044%=      5-min Rain = 0
KCA1 252052Z 17010KT 33/19 A2992 RMK A01 T03270193  RH  045%=      5-min Rain = 0
KCA1 252053Z 17012KT 33/20 A2992 RMK A01 T03280196  RH  046%=      5-min Rain = 0
KCA1 252054Z 16010KT 33/20 A2992 RMK A01 T03280198  RH  046%=      5-min Rain = 0
KCA1 252055Z 15013KT 33/20 A2992 RMK A01 T03280199  RH  047%=      5-min Rain = 0
KCA1 252056Z 17013G18KT 33/20 A2992 RMK A01 T03290197  RH  046%=      5-min Rain = 0
KCA1 252057Z 17013KT 33/20 A2992 RMK A01 T03290196  RH  045%=      5-min Rain = 0
KCA1 252058Z 18011KT 33/19 A2992 RMK A01 T03290194  RH  045%=      5-min Rain = 0
KCA1 252059Z 18009KT 33/20 A2992 RMK A01 T03280195  RH  046%=      5-min Rain = 0
KCA1 252100Z 16010KT 33/19 A2992 RMK A01 T03270194  RH  045%=      5-min Rain = 0
KCA1 252101Z 15014KT 33/20 A2992 RMK A01 T03270196  RH  046%=      5-min Rain = 0
KCA1 252102Z 15014KT 33/20 A2992 RMK A01 T03270198  RH  047%=      5-min Rain = 0
KCA1 252103Z 15013KT 33/20 A2992 RMK A01 T03260199  RH  047%=      5-min Rain = 0
KCA1 252104Z 16012KT 33/20 A2992 RMK A01 T03260203  RH  048%=      5-min Rain = 0
KCA1 252105Z 16012KT 33/20 A2992 RMK A01 T03270201  RH  047%=      5-min Rain = 0
KCA1 252106Z 17012KT 33/20 A2992 RMK A01 T03270200  RH  047%=      5-min Rain = 0
KCA1 252107Z 16013KT 33/20 A2992 RMK A01 T03260198  RH  047%=      5-min Rain = 0
KCA1 252108Z 17015KT 33/20 A2992 RMK A01 T03260203  RH  048%=      5-min Rain = 0
KCA1 252109Z 17015G20KT 33/20 A2992 RMK A01 T03280199  RH  047%=      5-min Rain = 0
KCA1 252110Z 17011G16KT 33/20 A2992 RMK A01 T03290197  RH  046%=      5-min Rain = 0
KCA1 252111Z 16010KT 33/20 A2992 RMK A01 T03270198  RH  047%=      5-min Rain = 0
KCA1 252112Z 15011KT 33/19 A2992 RMK A01 T03260194  RH  046%=      5-min Rain = 0
KCA1 252113Z 15014KT 33/20 A2992 RMK A01 T03250199  RH  048%=      5-min Rain = 0
KCA1 252114Z 15013KT 33/20 A2992 RMK A01 T03260199  RH  047%=      5-min Rain = 0
KCA1 252115Z 14014KT 33/20 A2992 RMK A01 T03260198  RH  047%=      5-min Rain = 0
KCA1 252116Z 14014KT 33/20 A2992 RMK A01 T03260197  RH  047%=      5-min Rain = 0
KCA1 252117Z 14013KT 33/20 A2992 RMK A01 T03250197  RH  047%=      5-min Rain = 0
KCA1 252118Z 15013KT 33/20 A2991 RMK A01 T03250199  RH  047%=      5-min Rain = 0
KCA1 252119Z 15018G23KT 33/20 A2991 RMK A01 T03260200  RH  047%=      5-min Rain = 0
KCA1 252120Z 15018G23KT 33/20 A2991 RMK A01 T03260197  RH  046%=      5-min Rain = 0
KCA1 252121Z 15016KT 33/20 A2991 RMK A01 T03250197  RH  047%=      5-min Rain = 0
KCA1 252122Z 15012KT 32/20 A2991 RMK A01 T03240200  RH  048%=      5-min Rain = 0
KCA1 252123Z 15015KT 33/20 A2991 RMK A01 T03250200  RH  048%=      5-min Rain = 0
KCA1 252124Z 15011KT 33/20 A2991 RMK A01 T03250198  RH  047%=      5-min Rain = 0
KCA1 252125Z 14012KT 32/20 A2991 RMK A01 T03240200  RH  048%=      5-min Rain = 0
KCA1 252126Z 14016KT 33/20 A2991 RMK A01 T03250198  RH  047%=      5-min Rain = 0
KCA1 252127Z 16016KT 33/20 A2991 RMK A01 T03250196  RH  047%=      5-min Rain = 0
KCA1 252128Z 15014KT 33/20 A2991 RMK A01 T03250195  RH  046%=      5-min Rain = 0
KCA1 252129Z 16012KT 33/20 A2991 RMK A01 T03250197  RH  047%=      5-min Rain = 0
KCA1 252130Z 14014KT 33/20 A2991 RMK A01 T03250197  RH  047%=      5-min Rain = 0
KCA1 252131Z 15014KT 32/20 A2991 RMK A01 T03240199  RH  047%=      5-min Rain = 0
KCA1 252132Z 15014KT 33/20 A2991 RMK A01 T03250200  RH  048%=      5-min Rain = 0
KCA1 252133Z 15015KT 32/20 A2991 RMK A01 T03240199  RH  048%=      5-min Rain = 0
KCA1 252134Z 15015G21KT 32/20 A2991 RMK A01 T03240199  RH  048%=      5-min Rain = 0
KCA1 252135Z 15018KT 33/20 A2991 RMK A01 T03250196  RH  047%=      5-min Rain = 0
KCA1 252136Z 14014KT 32/20 A2991 RMK A01 T03240197  RH  047%=      5-min Rain = 0
KCA1 252137Z 14014KT 32/20 A2991 RMK A01 T03240199  RH  047%=      5-min Rain = 0
KCA1 252138Z 14016KT 33/20 A2991 RMK A01 T03250196  RH  047%=      5-min Rain = 0
KCA1 252139Z 14015KT 32/20 A2991 RMK A01 T03240196  RH  047%=      5-min Rain = 0
KCA1 252140Z 15015KT 32/20 A2991 RMK A01 T03240195  RH  046%=      5-min Rain = 0
KCA1 252141Z 16015KT 32/20 A2991 RMK A01 T03230196  RH  047%=      5-min Rain = 0
KCA1 252142Z 16014KT 32/20 A2991 RMK A01 T03230198  RH  048%=      5-min Rain = 0
KCA1 252143Z 15016KT 32/20 A2991 RMK A01 T03230200  RH  048%=      5-min Rain = 0
KCA1 252144Z 14014KT 32/20 A2991 RMK A01 T03230201  RH  048%=      5-min Rain = 0
KCA1 252145Z 14016KT 32/20 A2991 RMK A01 T03240203  RH  049%=      5-min Rain = 0
KCA1 252146Z 14017KT 33/20 A2991 RMK A01 T03250199  RH  048%=      5-min Rain = 0
KCA1 252147Z 14017KT 32/20 A2991 RMK A01 T03240197  RH  047%=      5-min Rain = 0
KCA1 252148Z 14018KT 32/20 A2991 RMK A01 T03230197  RH  047%=      5-min Rain = 0
KCA1 252149Z 14017KT 32/20 A2991 RMK A01 T03220197  RH  048%=      5-min Rain = 0
KCA1 252150Z 14017KT 32/19 A2991 RMK A01 T03210194  RH  047%=      5-min Rain = 0
KCA1 252151Z 14017KT 32/20 A2991 RMK A01 T03210196  RH  048%=      5-min Rain = 0
KCA1 252152Z 13018KT 32/19 A2991 RMK A01 T03210193  RH  047%=      5-min Rain = 0
KCA1 252153Z 14017KT 32/19 A299 RMK A01 T03200194  RH  047%=      5-min Rain = 0
KCA1 252154Z 14018KT 32/20 A299 RMK A01 T03190196  RH  048%=      5-min Rain = 0
KCA1 252155Z 15019KT 32/20 A299 RMK A01 T03200195  RH  048%=      5-min Rain = 0
KCA1 252156Z 15017G22KT 32/20 A299 RMK A01 T03200195  RH  048%=      5-min Rain = 0
KCA1 252157Z 14015KT 32/19 A299 RMK A01 T03210194  RH  047%=      5-min Rain = 0
KCA1 252158Z 14019KT 32/20 A299 RMK A01 T03200195  RH  047%=      5-min Rain = 0
KCA1 252159Z 14016KT 32/19 A299 RMK A01 T03160193  RH  048%=      5-min Rain = 0
KCA1 252200Z 14015KT 31/19 A299 RMK A01 T03130194  RH  049%=      5-min Rain = 0
KCA1 252201Z 14017KT 31/19 A299 RMK A01 T03100194  RH  050%=      5-min Rain = 0
KCA1 252202Z 14018KT 31/19 A299 RMK A01 T03080193  RH  050%=      5-min Rain = 0
KCA1 252203Z 14016KT 31/19 A299 RMK A01 T03070193  RH  051%=      5-min Rain = 0
KCA1 252204Z 15016G22KT 31/19 A299 RMK A01 T03060194  RH  051%=      5-min Rain = 0
KCA1 252205Z 16016KT 31/19 A299 RMK A01 T03060194  RH  051%=      5-min Rain = 0
KCA1 252206Z 16015KT 31/19 A299 RMK A01 T03060193  RH  051%=      5-min Rain = 0
KCA1 252207Z 15013KT 31/19 A299 RMK A01 T03060194  RH  051%=      5-min Rain = 0
KCA1 252208Z 15014KT 31/19 A299 RMK A01 T03050194  RH  051%=      5-min Rain = 0
KCA1 252209Z 15012KT 31/20 A299 RMK A01 T03060195  RH  052%=      5-min Rain = 0
KCA1 252210Z 14016KT 31/19 A299 RMK A01 T03070194  RH  051%=      5-min Rain = 0
KCA1 252211Z 15015G20KT 31/20 A299 RMK A01 T03070195  RH  051%=      5-min Rain = 0
KCA1 252212Z 15015KT 31/20 A299 RMK A01 T03080196  RH  051%=      5-min Rain = 0
KCA1 252213Z 15016KT 31/19 A299 RMK A01 T03080194  RH  051%=      5-min Rain = 0
KCA1 252214Z 14018KT 31/20 A299 RMK A01 T03090195  RH  051%=      5-min Rain = 0
KCA1 252215Z 14015G20KT 31/20 A299 RMK A01 T03090195  RH  051%=      5-min Rain = 0
KCA1 252216Z 14013KT 31/20 A299 RMK A01 T03090198  RH  052%=      5-min Rain = 0
KCA1 252217Z 14018KT 31/20 A299 RMK A01 T03090199  RH  052%=      5-min Rain = 0
KCA1 252218Z 15015KT 31/20 A2991 RMK A01 T03090197  RH  051%=      5-min Rain = 0
KCA1 252219Z 17012G17KT 31/20 A2991 RMK A01 T03090201  RH  053%=      5-min Rain = 0
KCA1 252220Z 17015KT 31/20 A2991 RMK A01 T03090198  RH  052%=      5-min Rain = 0
KCA1 252221Z 17013KT 31/20 A2991 RMK A01 T03080196  RH  051%=      5-min Rain = 0
KCA1 252222Z 14013G19KT 31/20 A2991 RMK A01 T03070200  RH  053%=      5-min Rain = 0
KCA1 252223Z 15016KT 31/20 A2991 RMK A01 T03070199  RH  053%=      5-min Rain = 0
KCA1 252224Z 15013KT 31/20 A2991 RMK A01 T03070198  RH  052%=      5-min Rain = 0
KCA1 252225Z 16015KT 31/20 A2991 RMK A01 T03060200  RH  053%=      5-min Rain = 0
KCA1 252226Z 16015KT 31/20 A2991 RMK A01 T03060198  RH  052%=      5-min Rain = 0
KCA1 252227Z 17014KT 31/20 A2991 RMK A01 T03060195  RH  051%=      5-min Rain = 0
KCA1 252228Z 16014KT 31/20 A2991 RMK A01 T03070195  RH  051%=      5-min Rain = 0
KCA1 252229Z 15015KT 31/20 A2991 RMK A01 T03070195  RH  051%=      5-min Rain = 0
KCA1 252230Z 16016KT 31/19 A2991 RMK A01 T03070194  RH  051%=      5-min Rain = 0
KCA1 252231Z 16014KT 31/19 A2991 RMK A01 T03070194  RH  051%=      5-min Rain = 0
KCA1 252232Z 15012KT 31/20 A2991 RMK A01 T03080198  RH  052%=      5-min Rain = 0
KCA1 252233Z 16015KT 31/19 A2991 RMK A01 T03090194  RH  050%=      5-min Rain = 0
KCA1 252234Z 16013KT 31/20 A2991 RMK A01 T03090195  RH  051%=      5-min Rain = 0
KCA1 252235Z 16012KT 31/20 A2991 RMK A01 T03090198  RH  052%=      5-min Rain = 0
KCA1 252236Z 17014KT 31/20 A2991 RMK A01 T03080195  RH  051%=      5-min Rain = 0
KCA1 252237Z 17016KT 31/19 A2991 RMK A01 T03080192  RH  050%=      5-min Rain = 0
KCA1 252238Z 17013G18KT 31/19 A2991 RMK A01 T03070189  RH  049%=      5-min Rain = 0
KCA1 252239Z 17013KT 31/19 A2991 RMK A01 T03070191  RH  050%=      5-min Rain = 0
KCA1 252240Z 18013G18KT 31/19 A2992 RMK A01 T03070191  RH  050%=      5-min Rain = 0
KCA1 252241Z 17014G20KT 31/19 A2992 RMK A01 T03070190  RH  050%=      5-min Rain = 0
KCA1 252242Z 17016KT 31/19 A2992 RMK A01 T03060188  RH  049%=      5-min Rain = 0
KCA1 252243Z 16015KT 31/19 A2992 RMK A01 T03060189  RH  050%=      5-min Rain = 0
KCA1 252244Z 17014KT 31/19 A2992 RMK A01 T03050190  RH  050%=      5-min Rain = 0
KCA1 252245Z 17012KT 31/19 A2992 RMK A01 T03050191  RH  051%=      5-min Rain = 0
KCA1 252246Z 16015KT 30/19 A2992 RMK A01 T03040192  RH  051%=      5-min Rain = 0
KCA1 252247Z 16015KT 30/19 A2992 RMK A01 T03030190  RH  051%=      5-min Rain = 0
KCA1 252248Z 16017KT 30/19 A2992 RMK A01 T03030191  RH  051%=      5-min Rain = 0
KCA1 252249Z 16017KT 30/19 A2992 RMK A01 T03020189  RH  051%=      5-min Rain = 0
KCA1 252250Z 15016KT 30/19 A2992 RMK A01 T03010190  RH  051%=      5-min Rain = 0
KCA1 252251Z 16014KT 30/19 A2992 RMK A01 T03010189  RH  051%=      5-min Rain = 0
KCA1 252252Z 16012KT 30/19 A2992 RMK A01 T03000191  RH  052%=      5-min Rain = 0
KCA1 252253Z 16015KT 30/19 A2992 RMK A01 T02990190  RH  052%=      5-min Rain = 0
KCA1 252254Z 16014KT 30/19 A2992 RMK A01 T02990190  RH  052%=      5-min Rain = 0
KCA1 252255Z 16016G21KT 30/19 A2992 RMK A01 T02980190  RH  052%=      5-min Rain = 0
KCA1 252256Z 16013KT 30/19 A2991 RMK A01 T02980190  RH  052%=      5-min Rain = 0
KCA1 252257Z 16014G20KT 30/19 A2991 RMK A01 T02970191  RH  053%=      5-min Rain = 0
KCA1 252258Z 15015KT 30/19 A2991 RMK A01 T02970189  RH  052%=      5-min Rain = 0
KCA1 252259Z 15015KT 30/19 A2991 RMK A01 T02960190  RH  053%=      5-min Rain = 0
KCA1 252300Z 16015KT 30/19 A2991 RMK A01 T02960188  RH  052%=      5-min Rain = 0
KCA1 252301Z 16014KT 30/19 A2991 RMK A01 T02960189  RH  053%=      5-min Rain = 0
KCA1 252302Z 16013KT 30/19 A299 RMK A01 T02950190  RH  053%=      5-min Rain = 0
KCA1 252303Z 16013KT 30/19 A299 RMK A01 T02950190  RH  053%=      5-min Rain = 0
KCA1 252304Z 16015KT 30/19 A299 RMK A01 T02950189  RH  053%=      5-min Rain = 0
KCA1 252305Z 16014KT 29/19 A299 RMK A01 T02940188  RH  053%=      5-min Rain = 0
KCA1 252306Z 16012KT 29/19 A299 RMK A01 T02940188  RH  053%=      5-min Rain = 0
KCA1 252307Z 16011KT 29/19 A299 RMK A01 T02940189  RH  053%=      5-min Rain = 0
KCA1 252308Z 16012G17KT 29/19 A299 RMK A01 T02940190  RH  054%=      5-min Rain = 0
KCA1 252309Z 16015KT 29/19 A299 RMK A01 T02930188  RH  053%=      5-min Rain = 0
KCA1 252310Z 15013KT 29/19 A299 RMK A01 T02930189  RH  053%=      5-min Rain = 0
KCA1 252311Z 15015KT 29/19 A299 RMK A01 T02930188  RH  053%=      5-min Rain = 0
KCA1 252312Z 15011KT 29/19 A299 RMK A01 T02930188  RH  053%=      5-min Rain = 0
KCA1 252313Z 15010KT 29/19 A299 RMK A01 T02930190  RH  054%=      5-min Rain = 0
KCA1 252314Z 15012KT 29/19 A299 RMK A01 T02910188  RH  054%=      5-min Rain = 0
KCA1 252315Z 16011KT 29/19 A299 RMK A01 T02910188  RH  054%=      5-min Rain = 0
KCA1 252316Z 15010KT 29/19 A299 RMK A01 T02900188  RH  054%=      5-min Rain = 0
KCA1 252317Z 15010KT 29/19 A299 RMK A01 T02890188  RH  054%=      5-min Rain = 0
KCA1 252318Z 15010KT 29/19 A299 RMK A01 T02890188  RH  054%=      5-min Rain = 0
KCA1 252319Z 15010KT 29/19 A299 RMK A01 T02890186  RH  054%=      5-min Rain = 0
KCA1 252320Z 15008KT 29/19 A299 RMK A01 T02880187  RH  054%=      5-min Rain = 0
KCA1 252321Z 15010KT 29/19 A299 RMK A01 T02880187  RH  054%=      5-min Rain = 0
KCA1 252322Z 15009KT 29/19 A299 RMK A01 T02880186  RH  054%=      5-min Rain = 0
KCA1 252323Z 14008KT 29/19 A299 RMK A01 T02870186  RH  054%=      5-min Rain = 0
KCA1 252324Z 15010KT 29/19 A299 RMK A01 T02870187  RH  055%=      5-min Rain = 0
KCA1 252325Z 14011KT 29/19 A299 RMK A01 T02860185  RH  054%=      5-min Rain = 0
KCA1 252326Z 15009KT 29/19 A2991 RMK A01 T02870185  RH  054%=      5-min Rain = 0
KCA1 252327Z 15008KT 29/19 A2991 RMK A01 T02860187  RH  055%=      5-min Rain = 0
KCA1 252328Z 14008KT 29/19 A2991 RMK A01 T02860187  RH  055%=      5-min Rain = 0
KCA1 252329Z 14012KT 29/19 A2991 RMK A01 T02860186  RH  055%=      5-min Rain = 0
KCA1 252330Z 14010KT 29/19 A2991 RMK A01 T02860185  RH  055%=      5-min Rain = 0
KCA1 252331Z 15008KT 29/19 A2991 RMK A01 T02860186  RH  055%=      5-min Rain = 0
KCA1 252332Z 15009KT 29/19 A2991 RMK A01 T02860187  RH  055%=      5-min Rain = 0
KCA1 252333Z 14009KT 29/19 A2991 RMK A01 T02850186  RH  055%=      5-min Rain = 0
KCA1 252334Z 14010KT 29/19 A2991 RMK A01 T02850187  RH  055%=      5-min Rain = 0
KCA1 252335Z 14010KT 29/19 A2991 RMK A01 T02860187  RH  055%=      5-min Rain = 0
KCA1 252336Z 14010KT 29/19 A2991 RMK A01 T02860187  RH  055%=      5-min Rain = 0
KCA1 252337Z 14009KT 29/19 A2991 RMK A01 T02850188  RH  056%=      5-min Rain = 0
KCA1 252338Z 15008KT 29/19 A2991 RMK A01 T02850188  RH  056%=      5-min Rain = 0
KCA1 252339Z 15010KT 28/19 A2991 RMK A01 T02840189  RH  056%=      5-min Rain = 0
KCA1 252340Z 15009KT 28/19 A2992 RMK A01 T02830188  RH  056%=      5-min Rain = 0
KCA1 252341Z 15010KT 28/19 A2992 RMK A01 T02830189  RH  057%=      5-min Rain = 0
KCA1 252342Z 15009KT 28/19 A2992 RMK A01 T02820187  RH  056%=      5-min Rain = 0
KCA1 252343Z 16009KT 28/19 A2992 RMK A01 T02820188  RH  056%=      5-min Rain = 0
KCA1 252344Z 15009KT 28/19 A2992 RMK A01 T02820188  RH  056%=      5-min Rain = 0
KCA1 252345Z 15007KT 28/19 A2992 RMK A01 T02820188  RH  057%=      5-min Rain = 0
KCA1 252346Z 15008KT 28/19 A2992 RMK A01 T02820189  RH  057%=      5-min Rain = 0
KCA1 252347Z 15009KT 28/19 A2992 RMK A01 T02820189  RH  057%=      5-min Rain = 0
KCA1 252348Z 16009KT 28/19 A2992 RMK A01 T02820188  RH  057%=      5-min Rain = 0
KCA1 252349Z 15007KT 28/19 A2992 RMK A01 T02810188  RH  057%=      5-min Rain = 0
KCA1 252350Z 15008KT 28/19 A2992 RMK A01 T02810189  RH  057%=      5-min Rain = 0
KCA1 252351Z 15008KT 28/19 A2993 RMK A01 T02810189  RH  057%=      5-min Rain = 0
KCA1 252352Z 15007KT 28/19 A2993 RMK A01 T02810188  RH  057%=      5-min Rain = 0
KCA1 252353Z 14008KT 28/19 A2993 RMK A01 T02800188  RH  057%=      5-min Rain = 0
KCA1 252354Z 14008KT 28/19 A2993 RMK A01 T02810188  RH  057%=      5-min Rain = 0
KCA1 252355Z 14008KT 28/19 A2993 RMK A01 T02800188  RH  057%=      5-min Rain = 0
KCA1 252356Z 14009KT 28/19 A2993 RMK A01 T02810188  RH  057%=      5-min Rain = 0
KCA1 252357Z 14008KT 28/19 A2993 RMK A01 T02810188  RH  057%=      5-min Rain = 0
KCA1 252358Z 14008KT 28/19 A2993 RMK A01 T02810188  RH  057%=      5-min Rain = 0
KCA1 252359Z 14007KT 28/19 A2993 RMK A01 T02800188  RH  057%=      5-min Rain = 0
KCA1 260000Z 14007KT 28/19 A2993 RMK A01 T02810189  RH  057%=      5-min Rain = 0
KCA1 260001Z 14007KT 28/19 A2993 RMK A01 T02800189  RH  058%=      5-min Rain = 0
KCA1 260002Z 14007KT 28/19 A2993 RMK A01 T02800189  RH  058%=      5-min Rain = 0
KCA1 260003Z 14007KT 28/19 A2993 RMK A01 T02800188  RH  058%=      5-min Rain = 0
KCA1 260004Z 13006KT 28/19 A2993 RMK A01 T02800188  RH  058%=      5-min Rain = 0
KCA1 260005Z 14006KT 28/19 A2993 RMK A01 T02790189  RH  058%=      5-min Rain = 0
KCA1 260006Z 14006KT 28/19 A2994 RMK A01 T02790189  RH  058%=      5-min Rain = 0
KCA1 260007Z 13006KT 28/19 A2994 RMK A01 T02790188  RH  058%=      5-min Rain = 0
KCA1 260008Z 14006KT 28/19 A2994 RMK A01 T02790188  RH  058%=      5-min Rain = 0
KCA1 260009Z 14006KT 28/19 A2994 RMK A01 T02790189  RH  058%=      5-min Rain = 0
KCA1 260010Z 14006KT 28/19 A2994 RMK A01 T02780189  RH  058%=      5-min Rain = 0
KCA1 260011Z 13006KT 28/19 A2994 RMK A01 T02780189  RH  058%=      5-min Rain = 0
KCA1 260012Z 13006KT 28/19 A2994 RMK A01 T02770188  RH  058%=      5-min Rain = 0
KCA1 260013Z 13007KT 28/19 A2994 RMK A01 T02780189  RH  059%=      5-min Rain = 0
KCA1 260014Z 13007KT 28/19 A2994 RMK A01 T02770189  RH  058%=      5-min Rain = 0
KCA1 260015Z 13007KT 28/19 A2994 RMK A01 T02770188  RH  058%=      5-min Rain = 0
KCA1 260016Z 13007KT 28/19 A2994 RMK A01 T02770188  RH  058%=      5-min Rain = 0
KCA1 260017Z 13006KT 28/19 A2994 RMK A01 T02770188  RH  058%=      5-min Rain = 0
KCA1 260018Z 14007KT 28/19 A2994 RMK A01 T02770189  RH  059%=      5-min Rain = 0
KCA1 260019Z 14007KT 28/19 A2994 RMK A01 T02760188  RH  059%=      5-min Rain = 0
KCA1 260020Z 14006KT 28/19 A2995 RMK A01 T02760188  RH  059%=      5-min Rain = 0
KCA1 260021Z 15007KT 28/19 A2995 RMK A01 T02760188  RH  059%=      5-min Rain = 0
KCA1 260022Z 15007KT 28/19 A2995 RMK A01 T02760188  RH  059%=      5-min Rain = 0
KCA1 260023Z 16006KT 28/19 A2995 RMK A01 T02760189  RH  059%=      5-min Rain = 0
KCA1 260024Z 16007KT 28/19 A2995 RMK A01 T02750189  RH  059%=      5-min Rain = 0
KCA1 260025Z 16008KT 28/19 A2995 RMK A01 T02750188  RH  059%=      5-min Rain = 0
KCA1 260026Z 17008KT 28/19 A2995 RMK A01 T02750189  RH  059%=      5-min Rain = 0
KCA1 260027Z 17007KT 27/19 A2994 RMK A01 T02740189  RH  060%=      5-min Rain = 0
KCA1 260028Z 17007KT 27/19 A2994 RMK A01 T02730190  RH  060%=      5-min Rain = 0
KCA1 260029Z 17007KT 27/19 A2994 RMK A01 T02730190  RH  061%=      5-min Rain = 0
KCA1 260030Z 17007KT 27/19 A2994 RMK A01 T02720189  RH  060%=      5-min Rain = 0
KCA1 260031Z 17006KT 27/19 A2994 RMK A01 T02720190  RH  061%=      5-min Rain = 0
KCA1 260032Z 17006KT 27/19 A2994 RMK A01 T02710190  RH  061%=      5-min Rain = 0
KCA1 260033Z 17006KT 27/19 A2994 RMK A01 T02710189  RH  061%=      5-min Rain = 0
KCA1 260034Z 17006KT 27/19 A2994 RMK A01 T02700189  RH  061%=      5-min Rain = 0
KCA1 260035Z 16006KT 27/19 A2994 RMK A01 T02700189  RH  061%=      5-min Rain = 0
KCA1 260036Z 16006KT 27/19 A2994 RMK A01 T02700189  RH  061%=      5-min Rain = 0
KCA1 260037Z 16006KT 27/19 A2994 RMK A01 T02690188  RH  061%=      5-min Rain = 0
KCA1 260038Z 15007KT 27/19 A2994 RMK A01 T02700189  RH  061%=      5-min Rain = 0
KCA1 260039Z 15006KT 27/19 A2993 RMK A01 T02690189  RH  062%=      5-min Rain = 0
KCA1 260040Z 15006KT 27/19 A2993 RMK A01 T02690189  RH  062%=      5-min Rain = 0
KCA1 260041Z 15006KT 27/19 A2993 RMK A01 T02680189  RH  062%=      5-min Rain = 0
KCA1 260042Z 15007KT 27/19 A2993 RMK A01 T02670188  RH  062%=      5-min Rain = 0
KCA1 260043Z 15007KT 27/19 A2993 RMK A01 T02670188  RH  062%=      5-min Rain = 0
KCA1 260044Z 15006KT 27/19 A2993 RMK A01 T02670188  RH  062%=      5-min Rain = 0
KCA1 260045Z 15006KT 27/19 A2993 RMK A01 T02670188  RH  062%=      5-min Rain = 0
KCA1 260046Z 15007KT 27/19 A2993 RMK A01 T02660189  RH  062%=      5-min Rain = 0
KCA1 260047Z 15007KT 27/19 A2993 RMK A01 T02660189  RH  063%=      5-min Rain = 0
KCA1 260048Z 14008KT 27/19 A2993 RMK A01 T02660188  RH  063%=      5-min Rain = 0
KCA1 260049Z 14009KT 27/19 A2993 RMK A01 T02660187  RH  062%=      5-min Rain = 0
KCA1 260050Z 14008KT 27/19 A2993 RMK A01 T02650185  RH  061%=      5-min Rain = 0
KCA1 260051Z 14009KT 27/19 A2992 RMK A01 T02660186  RH  061%=      5-min Rain = 0
KCA1 260052Z 14008KT 27/19 A2992 RMK A01 T02670185  RH  061%=      5-min Rain = 0
KCA1 260053Z 14008KT 27/19 A2992 RMK A01 T02670185  RH  061%=      5-min Rain = 0
KCA1 260054Z 13009KT 27/19 A2992 RMK A01 T02670185  RH  061%=      5-min Rain = 0
KCA1 260055Z 14008KT 27/18 A2992 RMK A01 T02670184  RH  060%=      5-min Rain = 0
KCA1 260056Z 13008KT 27/19 A2993 RMK A01 T02680185  RH  060%=      5-min Rain = 0
KCA1 260057Z 12007KT 27/19 A2993 RMK A01 T02680185  RH  061%=      5-min Rain = 0
KCA1 260058Z 12007KT 27/19 A2993 RMK A01 T02680186  RH  061%=      5-min Rain = 0
KCA1 260059Z 11006KT 27/19 A2993 RMK A01 T02670186  RH  061%=      5-min Rain = 0
KCA1 260100Z 10007KT 27/19 A2993 RMK A01 T02670186  RH  061%=      5-min Rain = 0
KCA1 260101Z 10006KT 27/19 A2993 RMK A01 T02670186  RH  061%=      5-min Rain = 0
KCA1 260102Z 09006KT 27/19 A2993 RMK A01 T02660186  RH  062%=      5-min Rain = 0
KCA1 260103Z 09006KT 27/19 A2993 RMK A01 T02660186  RH  062%=      5-min Rain = 0
KCA1 260104Z 09005KT 27/19 A2993 RMK A01 T02650186  RH  062%=      5-min Rain = 0
KCA1 260105Z 09005KT 27/19 A2993 RMK A01 T02650187  RH  062%=      5-min Rain = 0
KCA1 260106Z 09005KT 26/19 A2993 RMK A01 T02640188  RH  063%=      5-min Rain = 0
KCA1 260107Z 09005KT 26/19 A2994 RMK A01 T02640188  RH  063%=      5-min Rain = 0
KCA1 260108Z 09006KT 26/19 A2994 RMK A01 T02630188  RH  063%=      5-min Rain = 0
KCA1 260109Z 09006KT 26/19 A2994 RMK A01 T02620188  RH  064%=      5-min Rain = 0
KCA1 260110Z 09006KT 26/19 A2994 RMK A01 T02620189  RH  064%=      5-min Rain = 0
KCA1 260111Z 09006KT 26/19 A2994 RMK A01 T02610189  RH  064%=      5-min Rain = 0
KCA1 260112Z 09006KT 26/19 A2994 RMK A01 T02610190  RH  065%=      5-min Rain = 0
KCA1 260113Z 09005KT 26/19 A2994 RMK A01 T02600190  RH  065%=      5-min Rain = 0
KCA1 260114Z 09005KT 26/19 A2994 RMK A01 T02590190  RH  066%=      5-min Rain = 0
KCA1 260115Z 10004KT 26/19 A2994 RMK A01 T02590190  RH  066%=      5-min Rain = 0
KCA1 260116Z 10004KT 26/19 A2994 RMK A01 T02590189  RH  065%=      5-min Rain = 0
KCA1 260117Z 09003KT 26/19 A2994 RMK A01 T02580189  RH  065%=      5-min Rain = 0
KCA1 260118Z 09004KT 26/19 A2994 RMK A01 T02580189  RH  065%=      5-min Rain = 0
KCA1 260119Z 10004KT 26/19 A2994 RMK A01 T02590188  RH  065%=      5-min Rain = 0
KCA1 260120Z 10004KT 26/19 A2994 RMK A01 T02590189  RH  065%=      5-min Rain = 0
KCA1 260121Z 10004KT 26/19 A2994 RMK A01 T02590188  RH  065%=      5-min Rain = 0
KCA1 260122Z 09003KT 26/19 A2994 RMK A01 T02600188  RH  064%=      5-min Rain = 0
KCA1 260123Z 09002KT 26/19 A2994 RMK A01 T02600189  RH  065%=      5-min Rain = 0
KCA1 260124Z 09002KT 26/19 A2994 RMK A01 T02600189  RH  065%=      5-min Rain = 0
KCA1 260125Z 09002KT 26/19 A2994 RMK A01 T02600188  RH  065%=      5-min Rain = 0
KCA1 260126Z 09001KT 26/19 A2994 RMK A01 T02600187  RH  064%=      5-min Rain = 0
KCA1 260127Z 09002KT 26/19 A2994 RMK A01 T02610189  RH  064%=      5-min Rain = 0
KCA1 260128Z 04001KT 26/19 A2995 RMK A01 T02610189  RH  064%=      5-min Rain = 0
KCA1 260129Z 00001KT 26/19 A2995 RMK A01 T02610188  RH  064%=      5-min Rain = 0
KCA1 260130Z 32001KT 26/19 A2995 RMK A01 T02610190  RH  065%=      5-min Rain = 0
KCA1 260131Z 05001KT 26/19 A2995 RMK A01 T02610190  RH  065%=      5-min Rain = 0
KCA1 260132Z 08002KT 26/19 A2995 RMK A01 T02600186  RH  064%=      5-min Rain = 0
KCA1 260133Z 06002KT 26/19 A2995 RMK A01 T02600188  RH  064%=      5-min Rain = 0
KCA1 260134Z 05002KT 26/19 A2995 RMK A01 T02600188  RH  064%=      5-min Rain = 0
KCA1 260135Z 07002KT 26/19 A2995 RMK A01 T02600188  RH  064%=      5-min Rain = 0
KCA1 260136Z 06001KT 26/19 A2995 RMK A01 T02600188  RH  064%=      5-min Rain = 0
KCA1 260137Z 07002KT 26/19 A2995 RMK A01 T02600188  RH  065%=      5-min Rain = 0
KCA1 260138Z 09002KT 26/19 A2995 RMK A01 T02590190  RH  066%=      5-min Rain = 0
KCA1 260139Z 09001KT 26/19 A2995 RMK A01 T02580186  RH  064%=      5-min Rain = 0
KCA1 260140Z 13001KT 26/19 A2995 RMK A01 T02580188  RH  065%=      5-min Rain = 0
KCA1 260141Z 14001KT 26/19 A2995 RMK A01 T02580188  RH  065%=      5-min Rain = 0
KCA1 260142Z 16001KT 26/19 A2995 RMK A01 T02580185  RH  064%=      5-min Rain = 0
KCA1 260143Z 17002KT 26/19 A2995 RMK A01 T02580185  RH  064%=      5-min Rain = 0
KCA1 260144Z 15002KT 26/19 A2994 RMK A01 T02590185  RH  064%=      5-min Rain = 0
KCA1 260145Z 14002KT 26/19 A2995 RMK A01 T02590185  RH  064%=      5-min Rain = 0
KCA1 260146Z 16002KT 26/19 A2995 RMK A01 T02600186  RH  064%=      5-min Rain = 0
KCA1 260147Z 18002KT 26/19 A2995 RMK A01 T02600185  RH  063%=      5-min Rain = 0
KCA1 260148Z 17004KT 26/19 A2995 RMK A01 T02600185  RH  063%=      5-min Rain = 0
KCA1 260149Z 16005KT 26/19 A2995 RMK A01 T02600185  RH  063%=      5-min Rain = 0
KCA1 260150Z 16005KT 26/19 A2995 RMK A01 T02600185  RH  063%=      5-min Rain = 0
KCA1 260151Z 16007KT 26/19 A2995 RMK A01 T02610186  RH  063%=      5-min Rain = 0
KCA1 260152Z 18007KT 26/18 A2995 RMK A01 T02600184  RH  063%=      5-min Rain = 0
KCA1 260153Z 19005KT 26/19 A2995 RMK A01 T02610185  RH  063%=      5-min Rain = 0
KCA1 260154Z 19007KT 26/19 A2995 RMK A01 T02600186  RH  064%=      5-min Rain = 0
KCA1 260155Z 20006KT 26/19 A2995 RMK A01 T02590187  RH  064%=      5-min Rain = 0
KCA1 260156Z 21004KT 26/19 A2995 RMK A01 T02580188  RH  065%=      5-min Rain = 0
KCA1 260157Z 23004KT 26/19 A2995 RMK A01 T02570189  RH  066%=      5-min Rain = 0
KCA1 260158Z 27004KT 26/19 A2995 RMK A01 T02550187  RH  066%=      5-min Rain = 0
KCA1 260159Z 27005KT 25/19 A2995 RMK A01 T02540188  RH  067%=      5-min Rain = 0
KCA1 260200Z 27004KT 25/19 A2995 RMK A01 T02530188  RH  067%=      5-min Rain = 0
KCA1 260201Z 26004KT 25/19 A2995 RMK A01 T02520188  RH  068%=      5-min Rain = 0
KCA1 260202Z 24004KT 25/19 A2995 RMK A01 T02520188  RH  068%=      5-min Rain = 0
KCA1 260203Z 22006KT 25/19 A2995 RMK A01 T02510187  RH  067%=      5-min Rain = 0
KCA1 260204Z 20006KT 25/19 A2995 RMK A01 T02520186  RH  067%=      5-min Rain = 0
KCA1 260205Z 19008KT 25/19 A2994 RMK A01 T02530185  RH  066%=      5-min Rain = 0
KCA1 260206Z 19010KT 25/18 A2994 RMK A01 T02540184  RH  065%=      5-min Rain = 0
KCA1 260207Z 18010KT 26/18 A2994 RMK A01 T02550184  RH  065%=      5-min Rain = 0
KCA1 260208Z 18013KT 26/18 A2993 RMK A01 T02560184  RH  065%=      5-min Rain = 0
KCA1 260209Z 17014KT 26/18 A2993 RMK A01 T02560184  RH  064%=      5-min Rain = 0
KCA1 260210Z 17014KT 26/18 A2992 RMK A01 T02560184  RH  065%=      5-min Rain = 0
KCA1 260211Z 17017KT 26/18 A2991 RMK A01 T02560181  RH  063%=      5-min Rain = 0
KCA1 260212Z 17018KT 26/18 A299 RMK A01 T02560179  RH  062%=      5-min Rain = 0
KCA1 260213Z 16018KT 26/18 A2989 RMK A01 T02570180  RH  062%=      5-min Rain = 0
KCA1 260214Z 16018KT 26/18 A2989 RMK A01 T02570181  RH  063%=      5-min Rain = 0
KCA1 260215Z 16018KT 26/18 A2988 RMK A01 T02570181  RH  063%=      5-min Rain = 0
KCA1 260216Z 16017KT 26/18 A2987 RMK A01 T02560181  RH  063%=      5-min Rain = 0
KCA1 260217Z 16017G22KT 26/18 A2987 RMK A01 T02550181  RH  064%=      5-min Rain = 0
KCA1 260218Z 17018KT 25/18 A2986 RMK A01 T02540178  RH  063%=      5-min Rain = 0
KCA1 260219Z 17017KT 25/17 A2986 RMK A01 T02540174  RH  061%=      5-min Rain = 0
KCA1 260220Z 18016KT 26/17 A2986 RMK A01 T02550169  RH  059%=      5-min Rain = 0
KCA1 260221Z 18017KT 26/17 A2987 RMK A01 T02570165  RH  057%=      5-min Rain = 0
KCA1 260222Z 18016G22KT 26/16 A2987 RMK A01 T02590159  RH  054%=      5-min Rain = 0
KCA1 260223Z 18015G20KT 26/15 A2987 RMK A01 T02620152  RH  051%=      5-min Rain = 0
KCA1 260224Z 18014G21KT 27/15 A2987 RMK A01 T02650146  RH  048%=      5-min Rain = 0
KCA1 260225Z 18015G21KT 27/14 A2987 RMK A01 T02670143  RH  046%=      5-min Rain = 0
KCA1 260226Z 17015KT 27/14 A2987 RMK A01 T02690135  RH  044%=      5-min Rain = 0
KCA1 260227Z 18015KT 27/13 A2987 RMK A01 T02710134  RH  043%=      5-min Rain = 0
KCA1 260228Z 18013KT 27/14 A2987 RMK A01 T02720135  RH  043%=      5-min Rain = 0
KCA1 260229Z 18013KT 27/13 A2987 RMK A01 T02720132  RH  042%=      5-min Rain = 0
KCA1 260230Z 17014G19KT 27/13 A2987 RMK A01 T02720128  RH  041%=      5-min Rain = 0
KCA1 260231Z 18012KT 27/12 A2987 RMK A01 T02740120  RH  038%=      5-min Rain = 0
KCA1 260232Z 17011KT 28/12 A2987 RMK A01 T02760116  RH  037%=      5-min Rain = 0
KCA1 260233Z 17009KT 28/12 A2988 RMK A01 T02760115  RH  037%=      5-min Rain = 0
KCA1 260234Z 18012G17KT 28/11 A2987 RMK A01 T02770108  RH  035%=      5-min Rain = 0
KCA1 260235Z 18011KT 28/10 A2987 RMK A01 T02790104  RH  034%=      5-min Rain = 0
KCA1 260236Z 18012G17KT 28/11 A2987 RMK A01 T02800105  RH  034%=      5-min Rain = 0
KCA1 260237Z 18011KT 28/10 A2987 RMK A01 T02800104  RH  033%=      5-min Rain = 0
KCA1 260238Z 19015KT 28/11 A2987 RMK A01 T02800106  RH  034%=      5-min Rain = 0
KCA1 260239Z 19012KT 28/11 A2988 RMK A01 T02800109  RH  034%=      5-min Rain = 0
KCA1 260240Z 19012G17KT 28/11 A2988 RMK A01 T02810111  RH  035%=      5-min Rain = 0
KCA1 260241Z 20015KT 28/11 A2988 RMK A01 T02800114  RH  036%=      5-min Rain = 0
KCA1 260242Z 20015G21KT 28/12 A2988 RMK A01 T02800116  RH  036%=      5-min Rain = 0
KCA1 260243Z 20017KT 28/12 A2988 RMK A01 T02800115  RH  036%=      5-min Rain = 0
KCA1 260244Z 20017KT 28/12 A2988 RMK A01 T02810115  RH  036%=      5-min Rain = 0
KCA1 260245Z 21013KT 28/12 A2988 RMK A01 T02820118  RH  036%=      5-min Rain = 0
KCA1 260246Z 21016KT 28/12 A2988 RMK A01 T02810123  RH  038%=      5-min Rain = 0
KCA1 260247Z 21017KT 28/13 A2988 RMK A01 T02790125  RH  039%=      5-min Rain = 0
KCA1 260248Z 20017KT 28/12 A2988 RMK A01 T02770122  RH  038%=      5-min Rain = 0
KCA1 260249Z 20016G21KT 28/12 A2988 RMK A01 T02780117  RH  037%=      5-min Rain = 0
KCA1 260250Z 20014G19KT 28/11 A2988 RMK A01 T02790109  RH  035%=      5-min Rain = 0
KCA1 260251Z 20015KT 28/11 A2988 RMK A01 T02820106  RH  033%=      5-min Rain = 0
KCA1 260252Z 20014KT 28/10 A2988 RMK A01 T02840104  RH  033%=      5-min Rain = 0
KCA1 260253Z 20015KT 28/10 A2988 RMK A01 T02840103  RH  032%=      5-min Rain = 0
KCA1 260254Z 20013KT 28/10 A2988 RMK A01 T02840101  RH  032%=      5-min Rain = 0
KCA1 260255Z 20014KT 28/10 A2988 RMK A01 T02830100  RH  032%=      5-min Rain = 0
KCA1 260256Z 20015KT 28/10 A2989 RMK A01 T02830098  RH  032%=      5-min Rain = 0
KCA1 260257Z 20015KT 28/09 A2989 RMK A01 T02820094  RH  031%=      5-min Rain = 0
KCA1 260258Z 20017KT 28/09 A2989 RMK A01 T02820091  RH  030%=      5-min Rain = 0
KCA1 260259Z 20016KT 28/09 A2989 RMK A01 T02830090  RH  030%=      5-min Rain = 0
KCA1 260300Z 20018KT 28/09 A2989 RMK A01 T02830089  RH  030%=      5-min Rain = 0
KCA1 260301Z 21022KT 28/09 A2989 RMK A01 T02830088  RH  029%=      5-min Rain = 0
KCA1 260302Z 20020G25KT 28/09 A2989 RMK A01 T02840088  RH  029%=      5-min Rain = 0
KCA1 260303Z 21021KT 28/09 A2989 RMK A01 T02830089  RH  029%=      5-min Rain = 0
KCA1 260304Z 20019G26KT 28/09 A299 RMK A01 T02830089  RH  030%=      5-min Rain = 0
KCA1 260305Z 21018G25KT 28/09 A299 RMK A01 T02820089  RH  030%=      5-min Rain = 0
KCA1 260306Z 21019KT 28/09 A299 RMK A01 T02810090  RH  030%=      5-min Rain = 0
KCA1 260307Z 21025G30KT 28/09 A299 RMK A01 T02790091  RH  031%=      5-min Rain = 0
KCA1 260308Z 21018KT 28/09 A2991 RMK A01 T02780092  RH  031%=      5-min Rain = 0
KCA1 260309Z 21022G27KT 28/09 A2991 RMK A01 T02770094  RH  032%=      5-min Rain = 0
KCA1 260310Z 21018G23KT 27/10 A2991 RMK A01 T02740095  RH  032%=      5-min Rain = 0
KCA1 260311Z 21023G28KT 27/10 A2991 RMK A01 T02730095  RH  033%=      5-min Rain = 0
KCA1 260312Z 22020KT 27/10 A2991 RMK A01 T02720095  RH  033%=      5-min Rain = 0
KCA1 260313Z 22020G26KT 27/10 A2991 RMK A01 T02710095  RH  033%=      5-min Rain = 0
KCA1 260314Z 22018G25KT 27/09 A2992 RMK A01 T02700094  RH  033%=      5-min Rain = 0
KCA1 260315Z 22024G29KT 27/10 A2991 RMK A01 T02690095  RH  033%=      5-min Rain = 0
KCA1 260316Z 21019KT 27/09 A2991 RMK A01 T02690094  RH  033%=      5-min Rain = 0
KCA1 260317Z 21020G30KT 27/10 A2991 RMK A01 T02680096  RH  034%=      5-min Rain = 0
KCA1 260318Z 21021G26KT 27/10 A2991 RMK A01 T02660096  RH  034%=      5-min Rain = 0
KCA1 260319Z 21024G29KT 27/10 A2991 RMK A01 T02660096  RH  034%=      5-min Rain = 0
KCA1 260320Z 21025G31KT 27/10 A2991 RMK A01 T02650096  RH  035%=      5-min Rain = 0
KCA1 260321Z 21020G26KT 27/10 A2991 RMK A01 T02650097  RH  035%=      5-min Rain = 0
KCA1 260322Z 21022G30KT 26/10 A2991 RMK A01 T02640098  RH  035%=      5-min Rain = 0
KCA1 260323Z 21022G28KT 26/10 A2991 RMK A01 T02620099  RH  036%=      5-min Rain = 0
KCA1 260324Z 21021G28KT 26/10 A2991 RMK A01 T02610099  RH  036%=      5-min Rain = 0
KCA1 260325Z 20018KT 26/10 A2992 RMK A01 T02600100  RH  037%=      5-min Rain = 0
KCA1 260326Z 21022G28KT 26/10 A2992 RMK A01 T02580100  RH  037%=      5-min Rain = 0
KCA1 260327Z 21019G28KT 26/10 A2992 RMK A01 T02580100  RH  037%=      5-min Rain = 0
KCA1 260328Z 20021G30KT 26/10 A2992 RMK A01 T02580100  RH  037%=      5-min Rain = 0
KCA1 260329Z 20022KT 26/10 A2992 RMK A01 T02580100  RH  037%=      5-min Rain = 0
KCA1 260330Z 21018KT 26/10 A2992 RMK A01 T02580100  RH  037%=      5-min Rain = 0
KCA1 260331Z 21017KT 26/10 A2992 RMK A01 T02570101  RH  037%=      5-min Rain = 0
KCA1 260332Z 21019G26KT 26/10 A2992 RMK A01 T02560101  RH  038%=      5-min Rain = 0
KCA1 260333Z 21021KT 26/10 A2993 RMK A01 T02550101  RH  038%=      5-min Rain = 0
KCA1 260334Z 20018KT 26/10 A2993 RMK A01 T02550101  RH  038%=      5-min Rain = 0
KCA1 260335Z 21019KT 26/10 A2993 RMK A01 T02550101  RH  038%=      5-min Rain = 0
KCA1 260336Z 20019G25KT 26/10 A2993 RMK A01 T02550101  RH  038%=      5-min Rain = 0
KCA1 260337Z 20022G30KT 25/10 A2993 RMK A01 T02540101  RH  038%=      5-min Rain = 0
KCA1 260338Z 21020G25KT 25/10 A2993 RMK A01 T02540102  RH  038%=      5-min Rain = 0
KCA1 260339Z 21019KT 25/10 A2994 RMK A01 T02540102  RH  038%=      5-min Rain = 0
KCA1 260340Z 20020G25KT 25/10 A2994 RMK A01 T02540102  RH  038%=      5-min Rain = 0
KCA1 260341Z 21016G22KT 25/10 A2994 RMK A01 T02540102  RH  038%=      5-min Rain = 0
KCA1 260342Z 21018KT 25/10 A2994 RMK A01 T02530102  RH  039%=      5-min Rain = 0
KCA1 260343Z 20017G22KT 25/10 A2995 RMK A01 T02530102  RH  039%=      5-min Rain = 0
KCA1 260344Z 21013KT 25/10 A2995 RMK A01 T02520104  RH  039%=      5-min Rain = 0
KCA1 260345Z 21020G28KT 25/11 A2995 RMK A01 T02500106  RH  040%=      5-min Rain = 0
KCA1 260346Z 21021G26KT 25/11 A2995 RMK A01 T02490107  RH  041%=      5-min Rain = 0
KCA1 260347Z 19018G24KT 25/11 A2995 RMK A01 T02490108  RH  041%=      5-min Rain = 0
KCA1 260348Z 20018G26KT 25/11 A2995 RMK A01 T02470109  RH  042%=      5-min Rain = 0
KCA1 260349Z 20018KT 25/11 A2995 RMK A01 T02460109  RH  042%=      5-min Rain = 0
KCA1 260350Z 19020KT 25/11 A2995 RMK A01 T02460109  RH  042%=      5-min Rain = 0
KCA1 260351Z 20021G29KT 25/11 A2996 RMK A01 T02460109  RH  042%=      5-min Rain = 0
KCA1 260352Z 19018KT 25/11 A2996 RMK A01 T02460109  RH  042%=      5-min Rain = 0
KCA1 260353Z 20019G24KT 25/11 A2996 RMK A01 T02460109  RH  042%=      5-min Rain = 0
KCA1 260354Z 20019G25KT 25/11 A2996 RMK A01 T02450109  RH  042%=      5-min Rain = 0
KCA1 260355Z 20023G29KT 24/11 A2995 RMK A01 T02440108  RH  042%=      5-min Rain = 0
KCA1 260356Z 19018G23KT 24/11 A2995 RMK A01 T02440107  RH  042%=      5-min Rain = 0
KCA1 260357Z 20019G24KT 25/11 A2995 RMK A01 T02450108  RH  042%=      5-min Rain = 0
KCA1 260358Z 20021G26KT 24/11 A2995 RMK A01 T02440108  RH  042%=      5-min Rain = 0
KCA1 260359Z 19022KT 24/11 A2995 RMK A01 T02440107  RH  042%=      5-min Rain = 0
KCA1 260400Z 20021G32KT 24/11 A2994 RMK A01 T02440107  RH  042%=      5-min Rain = 0
KCA1 260401Z 19025KT 24/11 A2994 RMK A01 T02440107  RH  042%=      5-min Rain = 0
KCA1 260402Z 20021G26KT 24/11 A2994 RMK A01 T02440107  RH  042%=      5-min Rain = 0
KCA1 260403Z 20020G26KT 24/11 A2994 RMK A01 T02440107  RH  042%=      5-min Rain = 0
KCA1 260404Z 19027G33KT 24/11 A2994 RMK A01 T02440107  RH  042%=      5-min Rain = 0
KCA1 260405Z 20018G23KT 24/11 A2994 RMK A01 T02440106  RH  042%=      5-min Rain = 0
KCA1 260406Z 19018G24KT 24/11 A2994 RMK A01 T02440107  RH  042%=      5-min Rain = 0
KCA1 260407Z 20022G31KT 24/11 A2994 RMK A01 T02430107  RH  042%=      5-min Rain = 0
KCA1 260408Z 20022G27KT 24/11 A2994 RMK A01 T02430106  RH  042%=      5-min Rain = 0
KCA1 260409Z 20023G28KT 24/11 A2994 RMK A01 T02430106  RH  042%=      5-min Rain = 0
KCA1 260410Z 20026G31KT 24/11 A2994 RMK A01 T02430106  RH  042%=      5-min Rain = 0
KCA1 260411Z 20020G25KT 24/11 A2994 RMK A01 T02430106  RH  042%=      5-min Rain = 0
KCA1 260412Z 19024G29KT 24/11 A2994 RMK A01 T02430106  RH  042%=      5-min Rain = 0
KCA1 260413Z 19023G31KT 24/11 A2993 RMK A01 T02430106  RH  042%=      5-min Rain = 0
KCA1 260414Z 19021G28KT 24/11 A2993 RMK A01 T02430106  RH  042%=      5-min Rain = 0
KCA1 260415Z 19023G28KT 24/11 A2993 RMK A01 T02420105  RH  042%=      5-min Rain = 0
KCA1 260416Z 19019KT 24/11 A2993 RMK A01 T02430105  RH  042%=      5-min Rain = 0
KCA1 260417Z 19023G31KT 24/11 A2993 RMK A01 T02430105  RH  042%=      5-min Rain = 0
KCA1 260418Z 20020G27KT 24/11 A2993 RMK A01 T02430105  RH  042%=      5-min Rain = 0
KCA1 260419Z 20022KT 24/11 A2993 RMK A01 T02430105  RH  042%=      5-min Rain = 0
KCA1 260420Z 20017G26KT 24/11 A2994 RMK A01 T02430105  RH  042%=      5-min Rain = 0
KCA1 260421Z 20020KT 24/11 A2993 RMK A01 T02430105  RH  042%=      5-min Rain = 0
KCA1 260422Z 20019G26KT 24/11 A2994 RMK A01 T02430105  RH  042%=      5-min Rain = 0
KCA1 260423Z 20019G27KT 24/10 A2993 RMK A01 T02430104  RH  042%=      5-min Rain = 0
KCA1 260424Z 20017KT 24/10 A2993 RMK A01 T02430104  RH  041%=      5-min Rain = 0
KCA1 260425Z 19016G23KT 24/10 A2993 RMK A01 T02430104  RH  041%=      5-min Rain = 0
KCA1 260426Z 20021G27KT 24/10 A2993 RMK A01 T02430103  RH  041%=      5-min Rain = 0
KCA1 260427Z 19018G25KT 24/10 A2993 RMK A01 T02440102  RH  041%=      5-min Rain = 0
KCA1 260428Z 20022G29KT 25/10 A2993 RMK A01 T02450102  RH  040%=      5-min Rain = 0
KCA1 260429Z 19022G27KT 25/10 A2992 RMK A01 T02460101  RH  040%=      5-min Rain = 0
KCA1 260430Z 19020G28KT 25/10 A2993 RMK A01 T02470101  RH  040%=      5-min Rain = 0
KCA1 260431Z 19026G31KT 25/10 A2993 RMK A01 T02470100  RH  039%=      5-min Rain = 0
KCA1 260432Z 19023G28KT 25/10 A2992 RMK A01 T02480100  RH  039%=      5-min Rain = 0
KCA1 260433Z 19019G24KT 25/10 A2993 RMK A01 T02490100  RH  039%=      5-min Rain = 0
KCA1 260434Z 19022KT 25/10 A2993 RMK A01 T02500100  RH  039%=      5-min Rain = 0
KCA1 260435Z 20019KT 25/10 A2993 RMK A01 T02500100  RH  039%=      5-min Rain = 0
KCA1 260436Z 20022G30KT 25/10 A2993 RMK A01 T02500099  RH  039%=      5-min Rain = 0
KCA1 260437Z 20017KT 25/10 A2993 RMK A01 T02510099  RH  038%=      5-min Rain = 0
KCA1 260438Z 20020KT 25/10 A2993 RMK A01 T02510099  RH  038%=      5-min Rain = 0
KCA1 260439Z 20021G28KT 25/10 A2993 RMK A01 T02510099  RH  038%=      5-min Rain = 0
KCA1 260440Z 20019G27KT 25/10 A2993 RMK A01 T02510099  RH  038%=      5-min Rain = 0
KCA1 260441Z 20020KT 25/10 A2993 RMK A01 T02510098  RH  038%=      5-min Rain = 0
KCA1 260442Z 19019KT 25/10 A2993 RMK A01 T02520099  RH  038%=      5-min Rain = 0
KCA1 260443Z 20019G25KT 25/10 A2993 RMK A01 T02510099  RH  038%=      5-min Rain = 0
KCA1 260444Z 19019KT 25/10 A2993 RMK A01 T02510099  RH  038%=      5-min Rain = 0
KCA1 260445Z 19019KT 25/10 A2993 RMK A01 T02510099  RH  038%=      5-min Rain = 0
KCA1 260446Z 20021G26KT 25/10 A2993 RMK A01 T02510099  RH  038%=      5-min Rain = 0
KCA1 260447Z 19017G23KT 25/10 A2993 RMK A01 T02510100  RH  038%=      5-min Rain = 0
KCA1 260448Z 20015KT 25/10 A2993 RMK A01 T02510100  RH  039%=      5-min Rain = 0
KCA1 260449Z 20014KT 25/10 A2994 RMK A01 T02490100  RH  039%=      5-min Rain = 0
KCA1 260450Z 19016KT 25/10 A2994 RMK A01 T02490100  RH  039%=      5-min Rain = 0
KCA1 260451Z 19015G21KT 25/10 A2994 RMK A01 T02490100  RH  039%=      5-min Rain = 0
KCA1 260452Z 18017KT 25/10 A2994 RMK A01 T02490099  RH  039%=      5-min Rain = 0
KCA1 260453Z 19014KT 25/10 A2994 RMK A01 T02490099  RH  039%=      5-min Rain = 0
KCA1 260454Z 18013G18KT 25/10 A2994 RMK A01 T02480100  RH  039%=      5-min Rain = 0
KCA1 260455Z 18014KT 25/10 A2994 RMK A01 T02480100  RH  039%=      5-min Rain = 0
KCA1 260456Z 17012G17KT 25/10 A2994 RMK A01 T02480100  RH  039%=      5-min Rain = 0
KCA1 260457Z 17012G19KT 25/10 A2994 RMK A01 T02470100  RH  039%=      5-min Rain = 0
KCA1 260458Z 16010KT 25/10 A2994 RMK A01 T02470100  RH  039%=      5-min Rain = 0
KCA1 260459Z 16012KT 25/10 A2994 RMK A01 T02470101  RH  040%=      5-min Rain = 0

Page generated in 0.1431 seconds.